<?xml version="1.0" encoding="UTF-8" standalone="no" ?>
<gpx xmlns="http://www.topografix.com/GPX/1/1" xmlns:xsi="http://www.w3.org/2001/XMLSchema-instance" xsi:schemaLocation="http://www.topografix.com/GPX/1/1 http://www.topografix.com/GPX/1/1/gpx.xsd" version="1.1" creator="VisuGPX - https://www.visugpx.com">
  <metadata>
    <name>Picouse depuis col dse sagnes </name>
    <desc><![CDATA[remplace le petit circuit d'automne de 2013]]></desc>
  </metadata>
  <trk>
    <name><![CDATA[N°  Col des Sagnes/Picouse/Piste de Gautières]]></name>
    <trkseg>
      <trkpt lat="44.37499" lon="6.16394">
        <ele>1117.6699219</ele>
        <time>2012-10-18T08:27:23Z</time>
      </trkpt>
      <trkpt lat="44.37495" lon="6.16391">
        <ele>1121.5151367</ele>
        <time>2012-10-18T08:27:32Z</time>
      </trkpt>
      <trkpt lat="44.37495" lon="6.16391">
        <ele>1126.3217773</ele>
        <time>2012-10-18T08:27:34Z</time>
      </trkpt>
      <trkpt lat="44.37496" lon="6.1639">
        <ele>1130.1669922</ele>
        <time>2012-10-18T08:27:36Z</time>
      </trkpt>
      <trkpt lat="44.37496" lon="6.16391">
        <ele>1130.1669922</ele>
        <time>2012-10-18T08:27:37Z</time>
      </trkpt>
      <trkpt lat="44.37496" lon="6.16391">
        <ele>1134.0124512</ele>
        <time>2012-10-18T08:27:40Z</time>
      </trkpt>
      <trkpt lat="44.37496" lon="6.1639">
        <ele>1137.3769531</ele>
        <time>2012-10-18T08:27:42Z</time>
      </trkpt>
      <trkpt lat="44.37496" lon="6.16391">
        <ele>1141.7028809</ele>
        <time>2012-10-18T08:27:45Z</time>
      </trkpt>
      <trkpt lat="44.37497" lon="6.1639">
        <ele>1145.5480957</ele>
        <time>2012-10-18T08:27:48Z</time>
      </trkpt>
      <trkpt lat="44.37496" lon="6.1639">
        <ele>1148.9128418</ele>
        <time>2012-10-18T08:27:50Z</time>
      </trkpt>
      <trkpt lat="44.37497" lon="6.16391">
        <ele>1152.7580566</ele>
        <time>2012-10-18T08:27:53Z</time>
      </trkpt>
      <trkpt lat="44.37497" lon="6.16391">
        <ele>1152.7580566</ele>
        <time>2012-10-18T08:27:54Z</time>
      </trkpt>
      <trkpt lat="44.37497" lon="6.16391">
        <ele>1156.6032715</ele>
        <time>2012-10-18T08:27:58Z</time>
      </trkpt>
      <trkpt lat="44.37497" lon="6.16391">
        <ele>1159.4873047</ele>
        <time>2012-10-18T08:28:01Z</time>
      </trkpt>
      <trkpt lat="44.37498" lon="6.16391">
        <ele>1163.3325195</ele>
        <time>2012-10-18T08:28:06Z</time>
      </trkpt>
      <trkpt lat="44.37499" lon="6.16388">
        <ele>1166.6972656</ele>
        <time>2012-10-18T08:28:09Z</time>
      </trkpt>
      <trkpt lat="44.37499" lon="6.16387">
        <ele>1167.1779785</ele>
        <time>2012-10-18T08:28:10Z</time>
      </trkpt>
      <trkpt lat="44.37499" lon="6.16379">
        <ele>1170.0617676</ele>
        <time>2012-10-18T08:28:16Z</time>
      </trkpt>
      <trkpt lat="44.37498" lon="6.1637">
        <ele>1172.9458008</ele>
        <time>2012-10-18T08:28:22Z</time>
      </trkpt>
      <trkpt lat="44.37497" lon="6.1636">
        <ele>1176.7910156</ele>
        <time>2012-10-18T08:28:29Z</time>
      </trkpt>
      <trkpt lat="44.37495" lon="6.1635">
        <ele>1179.1940918</ele>
        <time>2012-10-18T08:28:37Z</time>
      </trkpt>
      <trkpt lat="44.37494" lon="6.16348">
        <ele>1181.1171875</ele>
        <time>2012-10-18T08:28:40Z</time>
      </trkpt>
      <trkpt lat="44.37489" lon="6.16337">
        <ele>1184.0009766</ele>
        <time>2012-10-18T08:28:50Z</time>
      </trkpt>
      <trkpt lat="44.37482" lon="6.16327">
        <ele>1186.4042969</ele>
        <time>2012-10-18T08:29:03Z</time>
      </trkpt>
      <trkpt lat="44.37479" lon="6.1632">
        <ele>1187.8461914</ele>
        <time>2012-10-18T08:29:09Z</time>
      </trkpt>
      <trkpt lat="44.37476" lon="6.16317">
        <ele>1188.8076172</ele>
        <time>2012-10-18T08:29:13Z</time>
      </trkpt>
      <trkpt lat="44.37474" lon="6.16315">
        <ele>1187.3654785</ele>
        <time>2012-10-18T08:29:15Z</time>
      </trkpt>
      <trkpt lat="44.3747" lon="6.1631">
        <ele>1189.7687988</ele>
        <time>2012-10-18T08:29:22Z</time>
      </trkpt>
      <trkpt lat="44.3746" lon="6.16301">
        <ele>1190.2495117</ele>
        <time>2012-10-18T08:29:37Z</time>
      </trkpt>
      <trkpt lat="44.37458" lon="6.163">
        <ele>1191.6914063</ele>
        <time>2012-10-18T08:29:39Z</time>
      </trkpt>
      <trkpt lat="44.37448" lon="6.16289">
        <ele>1192.1721191</ele>
        <time>2012-10-18T08:29:53Z</time>
      </trkpt>
      <trkpt lat="44.37448" lon="6.16285">
        <ele>1193.1333008</ele>
        <time>2012-10-18T08:29:58Z</time>
      </trkpt>
      <trkpt lat="44.3746" lon="6.16276">
        <ele>1195.0559082</ele>
        <time>2012-10-18T08:30:16Z</time>
      </trkpt>
      <trkpt lat="44.37468" lon="6.16279">
        <ele>1196.9787598</ele>
        <time>2012-10-18T08:30:30Z</time>
      </trkpt>
      <trkpt lat="44.37487" lon="6.16274">
        <ele>1198.4206543</ele>
        <time>2012-10-18T08:30:51Z</time>
      </trkpt>
      <trkpt lat="44.37493" lon="6.16267">
        <ele>1199.862793</ele>
        <time>2012-10-18T08:31:03Z</time>
      </trkpt>
      <trkpt lat="44.37499" lon="6.1626">
        <ele>1202.2658691</ele>
        <time>2012-10-18T08:31:19Z</time>
      </trkpt>
      <trkpt lat="44.37506" lon="6.16248">
        <ele>1205.6306152</ele>
        <time>2012-10-18T08:31:40Z</time>
      </trkpt>
      <trkpt lat="44.37511" lon="6.16239">
        <ele>1208.9951172</ele>
        <time>2012-10-18T08:31:59Z</time>
      </trkpt>
      <trkpt lat="44.37512" lon="6.16229">
        <ele>1210.9177246</ele>
        <time>2012-10-18T08:32:14Z</time>
      </trkpt>
      <trkpt lat="44.37516" lon="6.16214">
        <ele>1214.2824707</ele>
        <time>2012-10-18T08:32:40Z</time>
      </trkpt>
      <trkpt lat="44.37516" lon="6.16203">
        <ele>1217.6469727</ele>
        <time>2012-10-18T08:32:59Z</time>
      </trkpt>
      <trkpt lat="44.37506" lon="6.16198">
        <ele>1220.050293</ele>
        <time>2012-10-18T08:33:20Z</time>
      </trkpt>
      <trkpt lat="44.37502" lon="6.16194">
        <ele>1222.9343262</ele>
        <time>2012-10-18T08:33:38Z</time>
      </trkpt>
      <trkpt lat="44.37495" lon="6.16192">
        <ele>1225.3374023</ele>
        <time>2012-10-18T08:33:53Z</time>
      </trkpt>
      <trkpt lat="44.3749" lon="6.16187">
        <ele>1228.2216797</ele>
        <time>2012-10-18T08:34:09Z</time>
      </trkpt>
      <trkpt lat="44.37484" lon="6.16183">
        <ele>1231.5861816</ele>
        <time>2012-10-18T08:34:27Z</time>
      </trkpt>
      <trkpt lat="44.37476" lon="6.16176">
        <ele>1234.4702148</ele>
        <time>2012-10-18T08:34:48Z</time>
      </trkpt>
      <trkpt lat="44.37465" lon="6.16171">
        <ele>1237.3540039</ele>
        <time>2012-10-18T08:35:10Z</time>
      </trkpt>
      <trkpt lat="44.37458" lon="6.16167">
        <ele>1239.2766113</ele>
        <time>2012-10-18T08:35:26Z</time>
      </trkpt>
      <trkpt lat="44.37453" lon="6.16161">
        <ele>1242.1606445</ele>
        <time>2012-10-18T08:35:43Z</time>
      </trkpt>
      <trkpt lat="44.37443" lon="6.16155">
        <ele>1244.5639648</ele>
        <time>2012-10-18T08:36:00Z</time>
      </trkpt>
      <trkpt lat="44.37432" lon="6.16144">
        <ele>1246.9672852</ele>
        <time>2012-10-18T08:36:21Z</time>
      </trkpt>
      <trkpt lat="44.3742" lon="6.16138">
        <ele>1250.3320313</ele>
        <time>2012-10-18T08:36:44Z</time>
      </trkpt>
      <trkpt lat="44.37413" lon="6.16131">
        <ele>1252.2543945</ele>
        <time>2012-10-18T08:36:59Z</time>
      </trkpt>
      <trkpt lat="44.37408" lon="6.16126">
        <ele>1254.1772461</ele>
        <time>2012-10-18T08:37:14Z</time>
      </trkpt>
      <trkpt lat="44.374" lon="6.16121">
        <ele>1256.5803223</ele>
        <time>2012-10-18T08:37:28Z</time>
      </trkpt>
      <trkpt lat="44.37395" lon="6.1612">
        <ele>1259.4643555</ele>
        <time>2012-10-18T08:37:44Z</time>
      </trkpt>
      <trkpt lat="44.37389" lon="6.16114">
        <ele>1261.8679199</ele>
        <time>2012-10-18T08:38:01Z</time>
      </trkpt>
      <trkpt lat="44.37385" lon="6.16109">
        <ele>1264.751709</ele>
        <time>2012-10-18T08:38:16Z</time>
      </trkpt>
      <trkpt lat="44.37378" lon="6.16097">
        <ele>1267.1550293</ele>
        <time>2012-10-18T08:38:34Z</time>
      </trkpt>
      <trkpt lat="44.37373" lon="6.16082">
        <ele>1269.0776367</ele>
        <time>2012-10-18T08:38:54Z</time>
      </trkpt>
      <trkpt lat="44.37368" lon="6.16068">
        <ele>1270.5195313</ele>
        <time>2012-10-18T08:39:11Z</time>
      </trkpt>
      <trkpt lat="44.37364" lon="6.16056">
        <ele>1272.4421387</ele>
        <time>2012-10-18T08:39:26Z</time>
      </trkpt>
      <trkpt lat="44.37361" lon="6.16036">
        <ele>1275.8066406</ele>
        <time>2012-10-18T08:39:49Z</time>
      </trkpt>
      <trkpt lat="44.37353" lon="6.16015">
        <ele>1278.2102051</ele>
        <time>2012-10-18T08:40:12Z</time>
      </trkpt>
      <trkpt lat="44.37342" lon="6.16008">
        <ele>1279.6520996</ele>
        <time>2012-10-18T08:40:30Z</time>
      </trkpt>
      <trkpt lat="44.3734" lon="6.16">
        <ele>1281.0942383</ele>
        <time>2012-10-18T08:40:41Z</time>
      </trkpt>
      <trkpt lat="44.37344" lon="6.15989">
        <ele>1284.4587402</ele>
        <time>2012-10-18T08:40:56Z</time>
      </trkpt>
      <trkpt lat="44.37343" lon="6.15979">
        <ele>1286.8618164</ele>
        <time>2012-10-18T08:41:13Z</time>
      </trkpt>
      <trkpt lat="44.37344" lon="6.15976">
        <ele>1287.3425293</ele>
        <time>2012-10-18T08:41:17Z</time>
      </trkpt>
      <trkpt lat="44.37342" lon="6.15963">
        <ele>1288.784668</ele>
        <time>2012-10-18T08:41:31Z</time>
      </trkpt>
      <trkpt lat="44.37341" lon="6.15951">
        <ele>1289.2651367</ele>
        <time>2012-10-18T08:41:47Z</time>
      </trkpt>
      <trkpt lat="44.37336" lon="6.15943">
        <ele>1290.2265625</ele>
        <time>2012-10-18T08:41:59Z</time>
      </trkpt>
      <trkpt lat="44.37335" lon="6.15941">
        <ele>1288.784668</ele>
        <time>2012-10-18T08:42:09Z</time>
      </trkpt>
      <trkpt lat="44.37335" lon="6.15941">
        <ele>1290.7070313</ele>
        <time>2012-10-18T08:42:11Z</time>
      </trkpt>
      <trkpt lat="44.37335" lon="6.15948">
        <ele>1290.2265625</ele>
        <time>2012-10-18T08:42:39Z</time>
      </trkpt>
      <trkpt lat="44.37335" lon="6.15949">
        <ele>1292.1494141</ele>
        <time>2012-10-18T08:42:41Z</time>
      </trkpt>
      <trkpt lat="44.37335" lon="6.15959">
        <ele>1293.1105957</ele>
        <time>2012-10-18T08:42:51Z</time>
      </trkpt>
      <trkpt lat="44.37333" lon="6.15967">
        <ele>1295.0332031</ele>
        <time>2012-10-18T08:43:00Z</time>
      </trkpt>
      <trkpt lat="44.37326" lon="6.15976">
        <ele>1296.9558105</ele>
        <time>2012-10-18T08:43:17Z</time>
      </trkpt>
      <trkpt lat="44.37317" lon="6.15985">
        <ele>1298.878418</ele>
        <time>2012-10-18T08:43:36Z</time>
      </trkpt>
      <trkpt lat="44.37312" lon="6.15993">
        <ele>1301.2817383</ele>
        <time>2012-10-18T08:43:48Z</time>
      </trkpt>
      <trkpt lat="44.37303" lon="6.16007">
        <ele>1303.2043457</ele>
        <time>2012-10-18T08:44:06Z</time>
      </trkpt>
      <trkpt lat="44.37293" lon="6.16011">
        <ele>1305.607666</ele>
        <time>2012-10-18T08:44:23Z</time>
      </trkpt>
      <trkpt lat="44.37281" lon="6.16013">
        <ele>1308.0112305</ele>
        <time>2012-10-18T08:44:41Z</time>
      </trkpt>
      <trkpt lat="44.37273" lon="6.16009">
        <ele>1311.3757324</ele>
        <time>2012-10-18T08:44:57Z</time>
      </trkpt>
      <trkpt lat="44.37268" lon="6.15997">
        <ele>1313.2983398</ele>
        <time>2012-10-18T08:45:14Z</time>
      </trkpt>
      <trkpt lat="44.37268" lon="6.15987">
        <ele>1315.7016602</ele>
        <time>2012-10-18T08:45:25Z</time>
      </trkpt>
      <trkpt lat="44.37267" lon="6.15982">
        <ele>1315.2209473</ele>
        <time>2012-10-18T08:45:49Z</time>
      </trkpt>
      <trkpt lat="44.37266" lon="6.15978">
        <ele>1315.2209473</ele>
        <time>2012-10-18T08:46:00Z</time>
      </trkpt>
      <trkpt lat="44.37266" lon="6.15978">
        <ele>1316.1821289</ele>
        <time>2012-10-18T08:46:03Z</time>
      </trkpt>
      <trkpt lat="44.37267" lon="6.15974">
        <ele>1317.6240234</ele>
        <time>2012-10-18T08:46:25Z</time>
      </trkpt>
      <trkpt lat="44.37262" lon="6.1596">
        <ele>1320.9887695</ele>
        <time>2012-10-18T08:46:46Z</time>
      </trkpt>
      <trkpt lat="44.37254" lon="6.15948">
        <ele>1323.8725586</ele>
        <time>2012-10-18T08:47:08Z</time>
      </trkpt>
      <trkpt lat="44.37246" lon="6.15941">
        <ele>1326.7568359</ele>
        <time>2012-10-18T08:47:30Z</time>
      </trkpt>
      <trkpt lat="44.3724" lon="6.1593">
        <ele>1330.1213379</ele>
        <time>2012-10-18T08:47:55Z</time>
      </trkpt>
      <trkpt lat="44.37242" lon="6.1592">
        <ele>1333.4858398</ele>
        <time>2012-10-18T08:48:14Z</time>
      </trkpt>
      <trkpt lat="44.3724" lon="6.15909">
        <ele>1336.369873</ele>
        <time>2012-10-18T08:48:35Z</time>
      </trkpt>
      <trkpt lat="44.37234" lon="6.15899">
        <ele>1339.734375</ele>
        <time>2012-10-18T08:48:58Z</time>
      </trkpt>
      <trkpt lat="44.3723" lon="6.15891">
        <ele>1342.6186523</ele>
        <time>2012-10-18T08:49:14Z</time>
      </trkpt>
      <trkpt lat="44.37225" lon="6.15877">
        <ele>1345.9831543</ele>
        <time>2012-10-18T08:49:41Z</time>
      </trkpt>
      <trkpt lat="44.37224" lon="6.15868">
        <ele>1347.9057617</ele>
        <time>2012-10-18T08:49:59Z</time>
      </trkpt>
      <trkpt lat="44.37224" lon="6.15859">
        <ele>1351.2702637</ele>
        <time>2012-10-18T08:50:18Z</time>
      </trkpt>
      <trkpt lat="44.37224" lon="6.15849">
        <ele>1354.6347656</ele>
        <time>2012-10-18T08:50:37Z</time>
      </trkpt>
      <trkpt lat="44.37225" lon="6.15834">
        <ele>1357.519043</ele>
        <time>2012-10-18T08:50:56Z</time>
      </trkpt>
      <trkpt lat="44.37228" lon="6.15808">
        <ele>1359.4416504</ele>
        <time>2012-10-18T08:51:25Z</time>
      </trkpt>
      <trkpt lat="44.37235" lon="6.1578">
        <ele>1359.4416504</ele>
        <time>2012-10-18T08:51:53Z</time>
      </trkpt>
      <trkpt lat="44.37237" lon="6.15753">
        <ele>1358.4802246</ele>
        <time>2012-10-18T08:52:21Z</time>
      </trkpt>
      <trkpt lat="44.37247" lon="6.1573">
        <ele>1358.4802246</ele>
        <time>2012-10-18T08:52:45Z</time>
      </trkpt>
      <trkpt lat="44.37244" lon="6.15718">
        <ele>1357.9997559</ele>
        <time>2012-10-18T08:52:56Z</time>
      </trkpt>
      <trkpt lat="44.37236" lon="6.15695">
        <ele>1358.4802246</ele>
        <time>2012-10-18T08:53:19Z</time>
      </trkpt>
      <trkpt lat="44.37233" lon="6.15669">
        <ele>1360.402832</ele>
        <time>2012-10-18T08:53:42Z</time>
      </trkpt>
      <trkpt lat="44.37241" lon="6.15651">
        <ele>1360.402832</ele>
        <time>2012-10-18T08:53:59Z</time>
      </trkpt>
      <trkpt lat="44.37242" lon="6.15618">
        <ele>1361.8449707</ele>
        <time>2012-10-18T08:54:26Z</time>
      </trkpt>
      <trkpt lat="44.37246" lon="6.15582">
        <ele>1364.2480469</ele>
        <time>2012-10-18T08:54:57Z</time>
      </trkpt>
      <trkpt lat="44.3725" lon="6.15559">
        <ele>1367.6125488</ele>
        <time>2012-10-18T08:55:22Z</time>
      </trkpt>
      <trkpt lat="44.37262" lon="6.1555">
        <ele>1370.496582</ele>
        <time>2012-10-18T08:55:43Z</time>
      </trkpt>
      <trkpt lat="44.37273" lon="6.1553">
        <ele>1373.8613281</ele>
        <time>2012-10-18T08:56:10Z</time>
      </trkpt>
      <trkpt lat="44.37281" lon="6.15515">
        <ele>1377.2260742</ele>
        <time>2012-10-18T08:56:34Z</time>
      </trkpt>
      <trkpt lat="44.37288" lon="6.15499">
        <ele>1380.1098633</ele>
        <time>2012-10-18T08:56:57Z</time>
      </trkpt>
      <trkpt lat="44.37285" lon="6.15486">
        <ele>1383.4743652</ele>
        <time>2012-10-18T08:57:16Z</time>
      </trkpt>
      <trkpt lat="44.37278" lon="6.15472">
        <ele>1386.8388672</ele>
        <time>2012-10-18T08:57:38Z</time>
      </trkpt>
      <trkpt lat="44.37272" lon="6.15459">
        <ele>1390.2038574</ele>
        <time>2012-10-18T08:58:00Z</time>
      </trkpt>
      <trkpt lat="44.37269" lon="6.15447">
        <ele>1393.0876465</ele>
        <time>2012-10-18T08:58:17Z</time>
      </trkpt>
      <trkpt lat="44.37271" lon="6.15428">
        <ele>1396.4523926</ele>
        <time>2012-10-18T08:58:41Z</time>
      </trkpt>
      <trkpt lat="44.37268" lon="6.15416">
        <ele>1399.3361816</ele>
        <time>2012-10-18T08:59:04Z</time>
      </trkpt>
      <trkpt lat="44.37263" lon="6.15403">
        <ele>1402.7006836</ele>
        <time>2012-10-18T08:59:25Z</time>
      </trkpt>
      <trkpt lat="44.37255" lon="6.15376">
        <ele>1405.5849609</ele>
        <time>2012-10-18T08:59:57Z</time>
      </trkpt>
      <trkpt lat="44.37252" lon="6.15354">
        <ele>1406.5461426</ele>
        <time>2012-10-18T09:00:20Z</time>
      </trkpt>
      <trkpt lat="44.37256" lon="6.15334">
        <ele>1407.0268555</ele>
        <time>2012-10-18T09:00:43Z</time>
      </trkpt>
      <trkpt lat="44.37267" lon="6.15314">
        <ele>1407.9882813</ele>
        <time>2012-10-18T09:01:08Z</time>
      </trkpt>
      <trkpt lat="44.37282" lon="6.1531">
        <ele>1406.5461426</ele>
        <time>2012-10-18T09:01:28Z</time>
      </trkpt>
      <trkpt lat="44.37294" lon="6.15294">
        <ele>1405.5849609</ele>
        <time>2012-10-18T09:01:49Z</time>
      </trkpt>
      <trkpt lat="44.37302" lon="6.15282">
        <ele>1403.6621094</ele>
        <time>2012-10-18T09:02:07Z</time>
      </trkpt>
      <trkpt lat="44.37307" lon="6.15272">
        <ele>1401.739502</ele>
        <time>2012-10-18T09:02:28Z</time>
      </trkpt>
      <trkpt lat="44.37314" lon="6.15259">
        <ele>1401.739502</ele>
        <time>2012-10-18T09:02:45Z</time>
      </trkpt>
      <trkpt lat="44.37331" lon="6.15259">
        <ele>1404.6235352</ele>
        <time>2012-10-18T09:03:10Z</time>
      </trkpt>
      <trkpt lat="44.37345" lon="6.15256">
        <ele>1407.9882813</ele>
        <time>2012-10-18T09:03:33Z</time>
      </trkpt>
      <trkpt lat="44.37352" lon="6.15241">
        <ele>1410.8720703</ele>
        <time>2012-10-18T09:03:56Z</time>
      </trkpt>
      <trkpt lat="44.37355" lon="6.15229">
        <ele>1414.2365723</ele>
        <time>2012-10-18T09:04:19Z</time>
      </trkpt>
      <trkpt lat="44.37358" lon="6.15213">
        <ele>1417.6010742</ele>
        <time>2012-10-18T09:04:44Z</time>
      </trkpt>
      <trkpt lat="44.3736" lon="6.15204">
        <ele>1419.0432129</ele>
        <time>2012-10-18T09:05:07Z</time>
      </trkpt>
      <trkpt lat="44.3736" lon="6.15204">
        <ele>1421.4465332</ele>
        <time>2012-10-18T09:05:09Z</time>
      </trkpt>
      <trkpt lat="44.37359" lon="6.15204">
        <ele>1419.0432129</ele>
        <time>2012-10-18T09:05:27Z</time>
      </trkpt>
      <trkpt lat="44.3736" lon="6.152">
        <ele>1420.9660645</ele>
        <time>2012-10-18T09:05:42Z</time>
      </trkpt>
      <trkpt lat="44.37361" lon="6.15198">
        <ele>1422.407959</ele>
        <time>2012-10-18T09:05:44Z</time>
      </trkpt>
      <trkpt lat="44.37363" lon="6.15176">
        <ele>1423.3693848</ele>
        <time>2012-10-18T09:06:06Z</time>
      </trkpt>
      <trkpt lat="44.37359" lon="6.15166">
        <ele>1426.7338867</ele>
        <time>2012-10-18T09:06:20Z</time>
      </trkpt>
      <trkpt lat="44.37354" lon="6.15151">
        <ele>1428.1757813</ele>
        <time>2012-10-18T09:06:40Z</time>
      </trkpt>
      <trkpt lat="44.37349" lon="6.1514">
        <ele>1432.0209961</ele>
        <time>2012-10-18T09:06:56Z</time>
      </trkpt>
      <trkpt lat="44.37346" lon="6.15136">
        <ele>1432.0209961</ele>
        <time>2012-10-18T09:07:04Z</time>
      </trkpt>
      <trkpt lat="44.37337" lon="6.15113">
        <ele>1434.4243164</ele>
        <time>2012-10-18T09:07:33Z</time>
      </trkpt>
      <trkpt lat="44.37337" lon="6.151">
        <ele>1437.3083496</ele>
        <time>2012-10-18T09:07:52Z</time>
      </trkpt>
      <trkpt lat="44.37344" lon="6.15091">
        <ele>1440.6728516</ele>
        <time>2012-10-18T09:08:11Z</time>
      </trkpt>
      <trkpt lat="44.37352" lon="6.15078">
        <ele>1444.0375977</ele>
        <time>2012-10-18T09:08:38Z</time>
      </trkpt>
      <trkpt lat="44.3735" lon="6.15063">
        <ele>1446.9213867</ele>
        <time>2012-10-18T09:09:01Z</time>
      </trkpt>
      <trkpt lat="44.37349" lon="6.15053">
        <ele>1450.7666016</ele>
        <time>2012-10-18T09:09:18Z</time>
      </trkpt>
      <trkpt lat="44.37349" lon="6.15036">
        <ele>1453.6508789</ele>
        <time>2012-10-18T09:09:39Z</time>
      </trkpt>
      <trkpt lat="44.37356" lon="6.1502">
        <ele>1457.0153809</ele>
        <time>2012-10-18T09:10:00Z</time>
      </trkpt>
      <trkpt lat="44.37362" lon="6.15012">
        <ele>1458.4572754</ele>
        <time>2012-10-18T09:10:15Z</time>
      </trkpt>
      <trkpt lat="44.37378" lon="6.14997">
        <ele>1460.8605957</ele>
        <time>2012-10-18T09:10:40Z</time>
      </trkpt>
      <trkpt lat="44.37391" lon="6.14985">
        <ele>1462.7832031</ele>
        <time>2012-10-18T09:11:03Z</time>
      </trkpt>
      <trkpt lat="44.37402" lon="6.1497">
        <ele>1466.1477051</ele>
        <time>2012-10-18T09:11:25Z</time>
      </trkpt>
      <trkpt lat="44.37415" lon="6.14959">
        <ele>1468.5512695</ele>
        <time>2012-10-18T09:11:46Z</time>
      </trkpt>
      <trkpt lat="44.37426" lon="6.14951">
        <ele>1470.9545898</ele>
        <time>2012-10-18T09:12:08Z</time>
      </trkpt>
      <trkpt lat="44.37435" lon="6.14941">
        <ele>1473.3579102</ele>
        <time>2012-10-18T09:12:27Z</time>
      </trkpt>
      <trkpt lat="44.3744" lon="6.14929">
        <ele>1476.7224121</ele>
        <time>2012-10-18T09:12:48Z</time>
      </trkpt>
      <trkpt lat="44.37445" lon="6.14918">
        <ele>1479.1254883</ele>
        <time>2012-10-18T09:13:07Z</time>
      </trkpt>
      <trkpt lat="44.37458" lon="6.14908">
        <ele>1480.567627</ele>
        <time>2012-10-18T09:13:32Z</time>
      </trkpt>
      <trkpt lat="44.37465" lon="6.14901">
        <ele>1483.451416</ele>
        <time>2012-10-18T09:13:49Z</time>
      </trkpt>
      <trkpt lat="44.37478" lon="6.14888">
        <ele>1486.8161621</ele>
        <time>2012-10-18T09:14:16Z</time>
      </trkpt>
      <trkpt lat="44.37485" lon="6.14868">
        <ele>1489.7001953</ele>
        <time>2012-10-18T09:14:42Z</time>
      </trkpt>
      <trkpt lat="44.37488" lon="6.14858">
        <ele>1491.1420898</ele>
        <time>2012-10-18T09:15:00Z</time>
      </trkpt>
      <trkpt lat="44.37493" lon="6.14841">
        <ele>1494.026123</ele>
        <time>2012-10-18T09:15:21Z</time>
      </trkpt>
      <trkpt lat="44.37504" lon="6.14826">
        <ele>1496.4294434</ele>
        <time>2012-10-18T09:15:46Z</time>
      </trkpt>
      <trkpt lat="44.37512" lon="6.14816">
        <ele>1499.3132324</ele>
        <time>2012-10-18T09:16:08Z</time>
      </trkpt>
      <trkpt lat="44.37519" lon="6.14805">
        <ele>1501.7167969</ele>
        <time>2012-10-18T09:16:35Z</time>
      </trkpt>
      <trkpt lat="44.37532" lon="6.1479">
        <ele>1505.0812988</ele>
        <time>2012-10-18T09:17:01Z</time>
      </trkpt>
      <trkpt lat="44.3754" lon="6.14777">
        <ele>1507.965332</ele>
        <time>2012-10-18T09:17:22Z</time>
      </trkpt>
      <trkpt lat="44.37546" lon="6.14771">
        <ele>1509.8876953</ele>
        <time>2012-10-18T09:17:47Z</time>
      </trkpt>
      <trkpt lat="44.37554" lon="6.14754">
        <ele>1513.2524414</ele>
        <time>2012-10-18T09:18:10Z</time>
      </trkpt>
      <trkpt lat="44.37563" lon="6.14744">
        <ele>1516.1364746</ele>
        <time>2012-10-18T09:18:31Z</time>
      </trkpt>
      <trkpt lat="44.37569" lon="6.14722">
        <ele>1518.5397949</ele>
        <time>2012-10-18T09:18:54Z</time>
      </trkpt>
      <trkpt lat="44.37576" lon="6.14701">
        <ele>1519.9816895</ele>
        <time>2012-10-18T09:19:18Z</time>
      </trkpt>
      <trkpt lat="44.37587" lon="6.14684">
        <ele>1522.3850098</ele>
        <time>2012-10-18T09:19:46Z</time>
      </trkpt>
      <trkpt lat="44.37587" lon="6.14683">
        <ele>1522.8657227</ele>
        <time>2012-10-18T09:20:09Z</time>
      </trkpt>
      <trkpt lat="44.37602" lon="6.14657">
        <ele>1524.7883301</ele>
        <time>2012-10-18T09:20:36Z</time>
      </trkpt>
      <trkpt lat="44.37612" lon="6.14643">
        <ele>1525.7495117</ele>
        <time>2012-10-18T09:21:00Z</time>
      </trkpt>
      <trkpt lat="44.3763" lon="6.14628">
        <ele>1528.6335449</ele>
        <time>2012-10-18T09:21:30Z</time>
      </trkpt>
      <trkpt lat="44.37639" lon="6.14622">
        <ele>1530.5561523</ele>
        <time>2012-10-18T09:21:50Z</time>
      </trkpt>
      <trkpt lat="44.37652" lon="6.14616">
        <ele>1533.9208984</ele>
        <time>2012-10-18T09:22:11Z</time>
      </trkpt>
      <trkpt lat="44.37666" lon="6.14607">
        <ele>1536.8046875</ele>
        <time>2012-10-18T09:22:36Z</time>
      </trkpt>
      <trkpt lat="44.37683" lon="6.146">
        <ele>1539.2080078</ele>
        <time>2012-10-18T09:23:06Z</time>
      </trkpt>
      <trkpt lat="44.37697" lon="6.14588">
        <ele>1542.5727539</ele>
        <time>2012-10-18T09:23:32Z</time>
      </trkpt>
      <trkpt lat="44.3771" lon="6.1458">
        <ele>1545.456543</ele>
        <time>2012-10-18T09:23:55Z</time>
      </trkpt>
      <trkpt lat="44.37721" lon="6.14569">
        <ele>1548.8212891</ele>
        <time>2012-10-18T09:24:21Z</time>
      </trkpt>
      <trkpt lat="44.37737" lon="6.14555">
        <ele>1552.185791</ele>
        <time>2012-10-18T09:24:47Z</time>
      </trkpt>
      <trkpt lat="44.37751" lon="6.14532">
        <ele>1554.5891113</ele>
        <time>2012-10-18T09:25:17Z</time>
      </trkpt>
      <trkpt lat="44.37764" lon="6.14516">
        <ele>1556.5117188</ele>
        <time>2012-10-18T09:25:43Z</time>
      </trkpt>
      <trkpt lat="44.37772" lon="6.14489">
        <ele>1559.395752</ele>
        <time>2012-10-18T09:26:11Z</time>
      </trkpt>
      <trkpt lat="44.37783" lon="6.14459">
        <ele>1562.7602539</ele>
        <time>2012-10-18T09:26:42Z</time>
      </trkpt>
      <trkpt lat="44.3779" lon="6.14436">
        <ele>1565.1638184</ele>
        <time>2012-10-18T09:27:07Z</time>
      </trkpt>
      <trkpt lat="44.37791" lon="6.14407">
        <ele>1567.0864258</ele>
        <time>2012-10-18T09:27:34Z</time>
      </trkpt>
      <trkpt lat="44.37791" lon="6.14382">
        <ele>1569.4897461</ele>
        <time>2012-10-18T09:27:58Z</time>
      </trkpt>
      <trkpt lat="44.37787" lon="6.14361">
        <ele>1571.4121094</ele>
        <time>2012-10-18T09:28:24Z</time>
      </trkpt>
      <trkpt lat="44.37779" lon="6.14318">
        <ele>1571.8928223</ele>
        <time>2012-10-18T09:29:01Z</time>
      </trkpt>
      <trkpt lat="44.37774" lon="6.14291">
        <ele>1570.9316406</ele>
        <time>2012-10-18T09:29:34Z</time>
      </trkpt>
      <trkpt lat="44.37774" lon="6.14247">
        <ele>1570.4509277</ele>
        <time>2012-10-18T09:30:13Z</time>
      </trkpt>
      <trkpt lat="44.37785" lon="6.14222">
        <ele>1569.0090332</ele>
        <time>2012-10-18T09:30:43Z</time>
      </trkpt>
      <trkpt lat="44.37786" lon="6.14214">
        <ele>1568.5283203</ele>
        <time>2012-10-18T09:31:08Z</time>
      </trkpt>
      <trkpt lat="44.37785" lon="6.14214">
        <ele>1567.5668945</ele>
        <time>2012-10-18T09:31:37Z</time>
      </trkpt>
      <trkpt lat="44.37785" lon="6.14214">
        <ele>1569.0090332</ele>
        <time>2012-10-18T09:31:40Z</time>
      </trkpt>
      <trkpt lat="44.37787" lon="6.14206">
        <ele>1568.0476074</ele>
        <time>2012-10-18T09:32:33Z</time>
      </trkpt>
      <trkpt lat="44.37792" lon="6.142">
        <ele>1568.5283203</ele>
        <time>2012-10-18T09:32:41Z</time>
      </trkpt>
      <trkpt lat="44.37802" lon="6.14175">
        <ele>1570.4509277</ele>
        <time>2012-10-18T09:33:02Z</time>
      </trkpt>
      <trkpt lat="44.37806" lon="6.14154">
        <ele>1571.8928223</ele>
        <time>2012-10-18T09:33:23Z</time>
      </trkpt>
      <trkpt lat="44.37806" lon="6.14137">
        <ele>1573.3349609</ele>
        <time>2012-10-18T09:33:42Z</time>
      </trkpt>
      <trkpt lat="44.37806" lon="6.14119">
        <ele>1576.21875</ele>
        <time>2012-10-18T09:34:00Z</time>
      </trkpt>
      <trkpt lat="44.37806" lon="6.14118">
        <ele>1576.21875</ele>
        <time>2012-10-18T09:34:01Z</time>
      </trkpt>
      <trkpt lat="44.37806" lon="6.14095">
        <ele>1577.6606445</ele>
        <time>2012-10-18T09:34:24Z</time>
      </trkpt>
      <trkpt lat="44.37802" lon="6.14068">
        <ele>1580.5449219</ele>
        <time>2012-10-18T09:34:51Z</time>
      </trkpt>
      <trkpt lat="44.378" lon="6.14048">
        <ele>1583.9094238</ele>
        <time>2012-10-18T09:35:16Z</time>
      </trkpt>
      <trkpt lat="44.37797" lon="6.14026">
        <ele>1587.2739258</ele>
        <time>2012-10-18T09:35:42Z</time>
      </trkpt>
      <trkpt lat="44.37799" lon="6.14011">
        <ele>1590.157959</ele>
        <time>2012-10-18T09:36:03Z</time>
      </trkpt>
      <trkpt lat="44.37799" lon="6.13996">
        <ele>1593.5224609</ele>
        <time>2012-10-18T09:36:28Z</time>
      </trkpt>
      <trkpt lat="44.37801" lon="6.13983">
        <ele>1596.4067383</ele>
        <time>2012-10-18T09:36:51Z</time>
      </trkpt>
      <trkpt lat="44.37802" lon="6.13972">
        <ele>1599.2905273</ele>
        <time>2012-10-18T09:37:14Z</time>
      </trkpt>
      <trkpt lat="44.37807" lon="6.13958">
        <ele>1603.1357422</ele>
        <time>2012-10-18T09:37:40Z</time>
      </trkpt>
      <trkpt lat="44.37809" lon="6.13946">
        <ele>1606.0195313</ele>
        <time>2012-10-18T09:38:03Z</time>
      </trkpt>
      <trkpt lat="44.37813" lon="6.13935">
        <ele>1609.3842773</ele>
        <time>2012-10-18T09:38:28Z</time>
      </trkpt>
      <trkpt lat="44.37815" lon="6.13926">
        <ele>1612.2683105</ele>
        <time>2012-10-18T09:38:49Z</time>
      </trkpt>
      <trkpt lat="44.3782" lon="6.13914">
        <ele>1615.6330566</ele>
        <time>2012-10-18T09:39:13Z</time>
      </trkpt>
      <trkpt lat="44.37816" lon="6.13903">
        <ele>1618.0361328</ele>
        <time>2012-10-18T09:39:39Z</time>
      </trkpt>
      <trkpt lat="44.37811" lon="6.13894">
        <ele>1621.4006348</ele>
        <time>2012-10-18T09:39:59Z</time>
      </trkpt>
      <trkpt lat="44.3781" lon="6.13881">
        <ele>1624.7653809</ele>
        <time>2012-10-18T09:40:22Z</time>
      </trkpt>
      <trkpt lat="44.37808" lon="6.13868">
        <ele>1627.6491699</ele>
        <time>2012-10-18T09:40:45Z</time>
      </trkpt>
      <trkpt lat="44.37809" lon="6.13858">
        <ele>1631.0141602</ele>
        <time>2012-10-18T09:41:03Z</time>
      </trkpt>
      <trkpt lat="44.37807" lon="6.13848">
        <ele>1633.8979492</ele>
        <time>2012-10-18T09:41:24Z</time>
      </trkpt>
      <trkpt lat="44.378" lon="6.13835">
        <ele>1637.2624512</ele>
        <time>2012-10-18T09:41:47Z</time>
      </trkpt>
      <trkpt lat="44.37792" lon="6.13821">
        <ele>1641.107666</ele>
        <time>2012-10-18T09:42:11Z</time>
      </trkpt>
      <trkpt lat="44.37775" lon="6.13798">
        <ele>1643.0302734</ele>
        <time>2012-10-18T09:42:45Z</time>
      </trkpt>
      <trkpt lat="44.37762" lon="6.13789">
        <ele>1644.4724121</ele>
        <time>2012-10-18T09:43:15Z</time>
      </trkpt>
      <trkpt lat="44.3775" lon="6.13773">
        <ele>1647.3564453</ele>
        <time>2012-10-18T09:43:41Z</time>
      </trkpt>
      <trkpt lat="44.3774" lon="6.13757">
        <ele>1650.2404785</ele>
        <time>2012-10-18T09:44:06Z</time>
      </trkpt>
      <trkpt lat="44.37734" lon="6.13748">
        <ele>1653.6049805</ele>
        <time>2012-10-18T09:44:27Z</time>
      </trkpt>
      <trkpt lat="44.37716" lon="6.13738">
        <ele>1656.4887695</ele>
        <time>2012-10-18T09:44:54Z</time>
      </trkpt>
      <trkpt lat="44.37695" lon="6.13732">
        <ele>1653.6049805</ele>
        <time>2012-10-18T09:45:25Z</time>
      </trkpt>
      <trkpt lat="44.3768" lon="6.13709">
        <ele>1652.1628418</ele>
        <time>2012-10-18T09:45:55Z</time>
      </trkpt>
      <trkpt lat="44.37679" lon="6.13708">
        <ele>1652.1628418</ele>
        <time>2012-10-18T09:45:56Z</time>
      </trkpt>
      <trkpt lat="44.3767" lon="6.13679">
        <ele>1653.6049805</ele>
        <time>2012-10-18T09:46:24Z</time>
      </trkpt>
      <trkpt lat="44.37669" lon="6.13656">
        <ele>1655.046875</ele>
        <time>2012-10-18T09:46:47Z</time>
      </trkpt>
      <trkpt lat="44.37665" lon="6.13635">
        <ele>1658.8920898</ele>
        <time>2012-10-18T09:47:14Z</time>
      </trkpt>
      <trkpt lat="44.37664" lon="6.13626">
        <ele>1662.2568359</ele>
        <time>2012-10-18T09:47:32Z</time>
      </trkpt>
      <trkpt lat="44.37668" lon="6.13613">
        <ele>1665.1408691</ele>
        <time>2012-10-18T09:47:51Z</time>
      </trkpt>
      <trkpt lat="44.37677" lon="6.136">
        <ele>1665.1408691</ele>
        <time>2012-10-18T09:48:12Z</time>
      </trkpt>
      <trkpt lat="44.37699" lon="6.1358">
        <ele>1665.621582</ele>
        <time>2012-10-18T09:48:50Z</time>
      </trkpt>
      <trkpt lat="44.377" lon="6.13579">
        <ele>1663.2182617</ele>
        <time>2012-10-18T09:49:02Z</time>
      </trkpt>
      <trkpt lat="44.377" lon="6.13579">
        <ele>1665.1408691</ele>
        <time>2012-10-18T09:49:04Z</time>
      </trkpt>
      <trkpt lat="44.37699" lon="6.13578">
        <ele>1667.5439453</ele>
        <time>2012-10-18T09:49:09Z</time>
      </trkpt>
      <trkpt lat="44.37699" lon="6.13576">
        <ele>1666.5827637</ele>
        <time>2012-10-18T09:49:31Z</time>
      </trkpt>
      <trkpt lat="44.37699" lon="6.13576">
        <ele>1664.6601563</ele>
        <time>2012-10-18T09:49:59Z</time>
      </trkpt>
      <trkpt lat="44.37699" lon="6.13576">
        <ele>1667.0634766</ele>
        <time>2012-10-18T09:50:47Z</time>
      </trkpt>
      <trkpt lat="44.377" lon="6.13576">
        <ele>1668.5053711</ele>
        <time>2012-10-18T09:51:00Z</time>
      </trkpt>
      <trkpt lat="44.377" lon="6.13576">
        <ele>1667.0634766</ele>
        <time>2012-10-18T09:51:09Z</time>
      </trkpt>
      <trkpt lat="44.377" lon="6.13576">
        <ele>1668.5053711</ele>
        <time>2012-10-18T09:51:11Z</time>
      </trkpt>
      <trkpt lat="44.377" lon="6.13576">
        <ele>1667.0634766</ele>
        <time>2012-10-18T09:51:13Z</time>
      </trkpt>
      <trkpt lat="44.377" lon="6.13576">
        <ele>1666.1020508</ele>
        <time>2012-10-18T09:51:28Z</time>
      </trkpt>
      <trkpt lat="44.37701" lon="6.13576">
        <ele>1666.5827637</ele>
        <time>2012-10-18T09:51:35Z</time>
      </trkpt>
      <trkpt lat="44.37701" lon="6.13576">
        <ele>1666.1020508</ele>
        <time>2012-10-18T09:51:39Z</time>
      </trkpt>
      <trkpt lat="44.37701" lon="6.13576">
        <ele>1668.5053711</ele>
        <time>2012-10-18T09:51:41Z</time>
      </trkpt>
      <trkpt lat="44.37702" lon="6.13576">
        <ele>1665.1408691</ele>
        <time>2012-10-18T09:51:47Z</time>
      </trkpt>
      <trkpt lat="44.37702" lon="6.13577">
        <ele>1665.1408691</ele>
        <time>2012-10-18T09:51:48Z</time>
      </trkpt>
      <trkpt lat="44.37702" lon="6.13577">
        <ele>1668.0246582</ele>
        <time>2012-10-18T09:51:52Z</time>
      </trkpt>
      <trkpt lat="44.37702" lon="6.13577">
        <ele>1668.0246582</ele>
        <time>2012-10-18T09:51:53Z</time>
      </trkpt>
      <trkpt lat="44.37702" lon="6.13577">
        <ele>1666.1020508</ele>
        <time>2012-10-18T09:51:55Z</time>
      </trkpt>
      <trkpt lat="44.37702" lon="6.13576">
        <ele>1666.1020508</ele>
        <time>2012-10-18T09:52:07Z</time>
      </trkpt>
      <trkpt lat="44.37702" lon="6.13576">
        <ele>1668.0246582</ele>
        <time>2012-10-18T09:52:12Z</time>
      </trkpt>
      <trkpt lat="44.37702" lon="6.13576">
        <ele>1666.1020508</ele>
        <time>2012-10-18T09:52:14Z</time>
      </trkpt>
      <trkpt lat="44.37703" lon="6.13575">
        <ele>1663.6987305</ele>
        <time>2012-10-18T09:52:21Z</time>
      </trkpt>
      <trkpt lat="44.37703" lon="6.13575">
        <ele>1665.621582</ele>
        <time>2012-10-18T09:52:25Z</time>
      </trkpt>
      <trkpt lat="44.37703" lon="6.13575">
        <ele>1667.0634766</ele>
        <time>2012-10-18T09:52:27Z</time>
      </trkpt>
      <trkpt lat="44.37704" lon="6.13574">
        <ele>1663.6987305</ele>
        <time>2012-10-18T09:52:43Z</time>
      </trkpt>
      <trkpt lat="44.37704" lon="6.13574">
        <ele>1668.986084</ele>
        <time>2012-10-18T09:52:45Z</time>
      </trkpt>
      <trkpt lat="44.37704" lon="6.13574">
        <ele>1668.986084</ele>
        <time>2012-10-18T09:52:46Z</time>
      </trkpt>
      <trkpt lat="44.37704" lon="6.13574">
        <ele>1666.1020508</ele>
        <time>2012-10-18T09:52:49Z</time>
      </trkpt>
      <trkpt lat="44.37705" lon="6.13574">
        <ele>1666.1020508</ele>
        <time>2012-10-18T09:52:58Z</time>
      </trkpt>
      <trkpt lat="44.37704" lon="6.13574">
        <ele>1668.0246582</ele>
        <time>2012-10-18T09:53:12Z</time>
      </trkpt>
      <trkpt lat="44.37704" lon="6.13574">
        <ele>1666.1020508</ele>
        <time>2012-10-18T09:53:19Z</time>
      </trkpt>
      <trkpt lat="44.37704" lon="6.13574">
        <ele>1668.0246582</ele>
        <time>2012-10-18T09:53:23Z</time>
      </trkpt>
      <trkpt lat="44.37704" lon="6.13574">
        <ele>1668.986084</ele>
        <time>2012-10-18T09:53:28Z</time>
      </trkpt>
      <trkpt lat="44.37704" lon="6.13574">
        <ele>1666.5827637</ele>
        <time>2012-10-18T09:53:32Z</time>
      </trkpt>
      <trkpt lat="44.37704" lon="6.13574">
        <ele>1668.986084</ele>
        <time>2012-10-18T09:53:39Z</time>
      </trkpt>
      <trkpt lat="44.37704" lon="6.13574">
        <ele>1667.5439453</ele>
        <time>2012-10-18T09:53:42Z</time>
      </trkpt>
      <trkpt lat="44.37704" lon="6.13574">
        <ele>1668.5053711</ele>
        <time>2012-10-18T09:53:47Z</time>
      </trkpt>
      <trkpt lat="44.37704" lon="6.13574">
        <ele>1666.1020508</ele>
        <time>2012-10-18T09:53:49Z</time>
      </trkpt>
      <trkpt lat="44.37704" lon="6.13574">
        <ele>1668.0246582</ele>
        <time>2012-10-18T09:53:51Z</time>
      </trkpt>
      <trkpt lat="44.37704" lon="6.13574">
        <ele>1666.5827637</ele>
        <time>2012-10-18T09:53:55Z</time>
      </trkpt>
      <trkpt lat="44.37703" lon="6.13575">
        <ele>1664.6601563</ele>
        <time>2012-10-18T09:56:17Z</time>
      </trkpt>
      <trkpt lat="44.37703" lon="6.13575">
        <ele>1666.1020508</ele>
        <time>2012-10-18T09:56:22Z</time>
      </trkpt>
      <trkpt lat="44.37703" lon="6.1358">
        <ele>1664.6601563</ele>
        <time>2012-10-18T09:56:42Z</time>
      </trkpt>
      <trkpt lat="44.37704" lon="6.13579">
        <ele>1667.5439453</ele>
        <time>2012-10-18T09:58:15Z</time>
      </trkpt>
      <trkpt lat="44.37702" lon="6.13579">
        <ele>1667.0634766</ele>
        <time>2012-10-18T09:59:57Z</time>
      </trkpt>
      <trkpt lat="44.37702" lon="6.13579">
        <ele>1665.621582</ele>
        <time>2012-10-18T10:02:41Z</time>
      </trkpt>
      <trkpt lat="44.37701" lon="6.13578">
        <ele>1667.5439453</ele>
        <time>2012-10-18T10:02:53Z</time>
      </trkpt>
      <trkpt lat="44.37702" lon="6.13578">
        <ele>1666.1020508</ele>
        <time>2012-10-18T10:02:55Z</time>
      </trkpt>
      <trkpt lat="44.37702" lon="6.13578">
        <ele>1667.5439453</ele>
        <time>2012-10-18T10:02:57Z</time>
      </trkpt>
      <trkpt lat="44.37701" lon="6.13578">
        <ele>1664.1794434</ele>
        <time>2012-10-18T10:03:40Z</time>
      </trkpt>
      <trkpt lat="44.37701" lon="6.13578">
        <ele>1661.7763672</ele>
        <time>2012-10-18T10:03:42Z</time>
      </trkpt>
      <trkpt lat="44.37701" lon="6.13578">
        <ele>1664.6601563</ele>
        <time>2012-10-18T10:03:43Z</time>
      </trkpt>
      <trkpt lat="44.37701" lon="6.13578">
        <ele>1664.6601563</ele>
        <time>2012-10-18T10:03:44Z</time>
      </trkpt>
      <trkpt lat="44.37697" lon="6.13579">
        <ele>1667.5439453</ele>
        <time>2012-10-18T10:04:09Z</time>
      </trkpt>
      <trkpt lat="44.37697" lon="6.13581">
        <ele>1666.5827637</ele>
        <time>2012-10-18T10:04:21Z</time>
      </trkpt>
      <trkpt lat="44.37697" lon="6.13582">
        <ele>1665.621582</ele>
        <time>2012-10-18T10:04:42Z</time>
      </trkpt>
      <trkpt lat="44.37695" lon="6.13585">
        <ele>1667.0634766</ele>
        <time>2012-10-18T10:04:48Z</time>
      </trkpt>
      <trkpt lat="44.37681" lon="6.13593">
        <ele>1666.5827637</ele>
        <time>2012-10-18T10:05:13Z</time>
      </trkpt>
      <trkpt lat="44.37676" lon="6.13605">
        <ele>1662.7375488</ele>
        <time>2012-10-18T10:05:25Z</time>
      </trkpt>
      <trkpt lat="44.37675" lon="6.13605">
        <ele>1662.7375488</ele>
        <time>2012-10-18T10:05:26Z</time>
      </trkpt>
      <trkpt lat="44.37675" lon="6.13606">
        <ele>1664.1794434</ele>
        <time>2012-10-18T10:05:28Z</time>
      </trkpt>
      <trkpt lat="44.37669" lon="6.13624">
        <ele>1663.2182617</ele>
        <time>2012-10-18T10:05:55Z</time>
      </trkpt>
      <trkpt lat="44.37662" lon="6.13641">
        <ele>1660.3342285</ele>
        <time>2012-10-18T10:06:20Z</time>
      </trkpt>
      <trkpt lat="44.37663" lon="6.13665">
        <ele>1656.9694824</ele>
        <time>2012-10-18T10:06:43Z</time>
      </trkpt>
      <trkpt lat="44.37657" lon="6.13695">
        <ele>1656.4887695</ele>
        <time>2012-10-18T10:07:11Z</time>
      </trkpt>
      <trkpt lat="44.37646" lon="6.13728">
        <ele>1654.5661621</ele>
        <time>2012-10-18T10:07:43Z</time>
      </trkpt>
      <trkpt lat="44.37638" lon="6.13735">
        <ele>1652.1628418</ele>
        <time>2012-10-18T10:07:58Z</time>
      </trkpt>
      <trkpt lat="44.37627" lon="6.13742">
        <ele>1651.682373</ele>
        <time>2012-10-18T10:08:16Z</time>
      </trkpt>
      <trkpt lat="44.37614" lon="6.13753">
        <ele>1650.7209473</ele>
        <time>2012-10-18T10:08:32Z</time>
      </trkpt>
      <trkpt lat="44.376" lon="6.13757">
        <ele>1650.7209473</ele>
        <time>2012-10-18T10:08:47Z</time>
      </trkpt>
      <trkpt lat="44.37586" lon="6.13758">
        <ele>1650.7209473</ele>
        <time>2012-10-18T10:09:02Z</time>
      </trkpt>
      <trkpt lat="44.3757" lon="6.13758">
        <ele>1647.8371582</ele>
        <time>2012-10-18T10:09:21Z</time>
      </trkpt>
      <trkpt lat="44.37548" lon="6.13773">
        <ele>1645.4338379</ele>
        <time>2012-10-18T10:09:47Z</time>
      </trkpt>
      <trkpt lat="44.37537" lon="6.13777">
        <ele>1642.0690918</ele>
        <time>2012-10-18T10:10:00Z</time>
      </trkpt>
      <trkpt lat="44.37523" lon="6.13788">
        <ele>1638.7045898</ele>
        <time>2012-10-18T10:10:21Z</time>
      </trkpt>
      <trkpt lat="44.3751" lon="6.13797">
        <ele>1635.8205566</ele>
        <time>2012-10-18T10:10:40Z</time>
      </trkpt>
      <trkpt lat="44.37498" lon="6.13799">
        <ele>1632.4560547</ele>
        <time>2012-10-18T10:10:56Z</time>
      </trkpt>
      <trkpt lat="44.37478" lon="6.138">
        <ele>1629.0913086</ele>
        <time>2012-10-18T10:11:23Z</time>
      </trkpt>
      <trkpt lat="44.37456" lon="6.13792">
        <ele>1625.7265625</ele>
        <time>2012-10-18T10:11:47Z</time>
      </trkpt>
      <trkpt lat="44.37443" lon="6.1379">
        <ele>1626.2072754</ele>
        <time>2012-10-18T10:11:59Z</time>
      </trkpt>
      <trkpt lat="44.37441" lon="6.13791">
        <ele>1625.2458496</ele>
        <time>2012-10-18T10:12:01Z</time>
      </trkpt>
      <trkpt lat="44.37425" lon="6.13794">
        <ele>1624.7653809</ele>
        <time>2012-10-18T10:12:19Z</time>
      </trkpt>
      <trkpt lat="44.37407" lon="6.1379">
        <ele>1624.284668</ele>
        <time>2012-10-18T10:12:34Z</time>
      </trkpt>
      <trkpt lat="44.3739" lon="6.1379">
        <ele>1625.7265625</ele>
        <time>2012-10-18T10:12:52Z</time>
      </trkpt>
      <trkpt lat="44.37377" lon="6.138">
        <ele>1627.1687012</ele>
        <time>2012-10-18T10:13:10Z</time>
      </trkpt>
      <trkpt lat="44.37371" lon="6.13797">
        <ele>1628.130127</ele>
        <time>2012-10-18T10:13:28Z</time>
      </trkpt>
      <trkpt lat="44.37356" lon="6.13793">
        <ele>1627.1687012</ele>
        <time>2012-10-18T10:13:47Z</time>
      </trkpt>
      <trkpt lat="44.37337" lon="6.13785">
        <ele>1626.2072754</ele>
        <time>2012-10-18T10:14:09Z</time>
      </trkpt>
      <trkpt lat="44.3733" lon="6.13779">
        <ele>1626.6879883</ele>
        <time>2012-10-18T10:14:21Z</time>
      </trkpt>
      <trkpt lat="44.37328" lon="6.13776">
        <ele>1625.2458496</ele>
        <time>2012-10-18T10:14:25Z</time>
      </trkpt>
      <trkpt lat="44.37328" lon="6.13774">
        <ele>1623.3234863</ele>
        <time>2012-10-18T10:14:27Z</time>
      </trkpt>
      <trkpt lat="44.37326" lon="6.13771">
        <ele>1624.7653809</ele>
        <time>2012-10-18T10:14:30Z</time>
      </trkpt>
      <trkpt lat="44.37308" lon="6.13754">
        <ele>1623.8039551</ele>
        <time>2012-10-18T10:14:55Z</time>
      </trkpt>
      <trkpt lat="44.37306" lon="6.13754">
        <ele>1622.3620605</ele>
        <time>2012-10-18T10:15:09Z</time>
      </trkpt>
      <trkpt lat="44.37306" lon="6.13754">
        <ele>1620.4394531</ele>
        <time>2012-10-18T10:15:12Z</time>
      </trkpt>
      <trkpt lat="44.37306" lon="6.13754">
        <ele>1623.3234863</ele>
        <time>2012-10-18T10:15:14Z</time>
      </trkpt>
      <trkpt lat="44.37306" lon="6.13754">
        <ele>1622.3620605</ele>
        <time>2012-10-18T10:15:26Z</time>
      </trkpt>
      <trkpt lat="44.37306" lon="6.13754">
        <ele>1623.3234863</ele>
        <time>2012-10-18T10:15:32Z</time>
      </trkpt>
      <trkpt lat="44.37306" lon="6.13754">
        <ele>1621.8813477</ele>
        <time>2012-10-18T10:15:37Z</time>
      </trkpt>
      <trkpt lat="44.37306" lon="6.13754">
        <ele>1621.4006348</ele>
        <time>2012-10-18T10:15:44Z</time>
      </trkpt>
      <trkpt lat="44.37306" lon="6.13754">
        <ele>1622.8427734</ele>
        <time>2012-10-18T10:15:46Z</time>
      </trkpt>
      <trkpt lat="44.37306" lon="6.13754">
        <ele>1620.920166</ele>
        <time>2012-10-18T10:15:49Z</time>
      </trkpt>
      <trkpt lat="44.37306" lon="6.13754">
        <ele>1621.4006348</ele>
        <time>2012-10-18T10:16:03Z</time>
      </trkpt>
      <trkpt lat="44.37306" lon="6.13754">
        <ele>1620.920166</ele>
        <time>2012-10-18T10:16:49Z</time>
      </trkpt>
      <trkpt lat="44.37306" lon="6.13754">
        <ele>1622.3620605</ele>
        <time>2012-10-18T10:16:51Z</time>
      </trkpt>
      <trkpt lat="44.37296" lon="6.13748">
        <ele>1621.4006348</ele>
        <time>2012-10-18T10:17:18Z</time>
      </trkpt>
      <trkpt lat="44.37275" lon="6.13743">
        <ele>1619.9587402</ele>
        <time>2012-10-18T10:17:38Z</time>
      </trkpt>
      <trkpt lat="44.37251" lon="6.13745">
        <ele>1620.4394531</ele>
        <time>2012-10-18T10:18:03Z</time>
      </trkpt>
      <trkpt lat="44.3725" lon="6.13746">
        <ele>1619.9587402</ele>
        <time>2012-10-18T10:18:04Z</time>
      </trkpt>
      <trkpt lat="44.37241" lon="6.13751">
        <ele>1618.9975586</ele>
        <time>2012-10-18T10:18:14Z</time>
      </trkpt>
      <trkpt lat="44.37219" lon="6.13758">
        <ele>1618.9975586</ele>
        <time>2012-10-18T10:18:37Z</time>
      </trkpt>
      <trkpt lat="44.37199" lon="6.13755">
        <ele>1620.4394531</ele>
        <time>2012-10-18T10:18:59Z</time>
      </trkpt>
      <trkpt lat="44.37198" lon="6.13754">
        <ele>1618.5168457</ele>
        <time>2012-10-18T10:19:01Z</time>
      </trkpt>
      <trkpt lat="44.37189" lon="6.13755">
        <ele>1618.0361328</ele>
        <time>2012-10-18T10:19:12Z</time>
      </trkpt>
      <trkpt lat="44.37184" lon="6.13759">
        <ele>1618.5168457</ele>
        <time>2012-10-18T10:19:18Z</time>
      </trkpt>
      <trkpt lat="44.37163" lon="6.13774">
        <ele>1616.1135254</ele>
        <time>2012-10-18T10:19:45Z</time>
      </trkpt>
      <trkpt lat="44.37146" lon="6.13793">
        <ele>1614.190918</ele>
        <time>2012-10-18T10:20:14Z</time>
      </trkpt>
      <trkpt lat="44.37125" lon="6.13806">
        <ele>1613.7102051</ele>
        <time>2012-10-18T10:20:39Z</time>
      </trkpt>
      <trkpt lat="44.37122" lon="6.13809">
        <ele>1611.7875977</ele>
        <time>2012-10-18T10:20:43Z</time>
      </trkpt>
      <trkpt lat="44.3712" lon="6.13816">
        <ele>1611.3068848</ele>
        <time>2012-10-18T10:20:50Z</time>
      </trkpt>
      <trkpt lat="44.37119" lon="6.13818">
        <ele>1612.7490234</ele>
        <time>2012-10-18T10:20:52Z</time>
      </trkpt>
      <trkpt lat="44.37118" lon="6.1382">
        <ele>1610.8261719</ele>
        <time>2012-10-18T10:20:54Z</time>
      </trkpt>
      <trkpt lat="44.37097" lon="6.13836">
        <ele>1609.8647461</ele>
        <time>2012-10-18T10:21:22Z</time>
      </trkpt>
      <trkpt lat="44.37081" lon="6.13863">
        <ele>1606.980957</ele>
        <time>2012-10-18T10:21:51Z</time>
      </trkpt>
      <trkpt lat="44.37079" lon="6.13884">
        <ele>1604.5776367</ele>
        <time>2012-10-18T10:22:14Z</time>
      </trkpt>
      <trkpt lat="44.37082" lon="6.13893">
        <ele>1602.1743164</ele>
        <time>2012-10-18T10:22:35Z</time>
      </trkpt>
      <trkpt lat="44.37079" lon="6.13903">
        <ele>1598.8098145</ele>
        <time>2012-10-18T10:22:51Z</time>
      </trkpt>
      <trkpt lat="44.37071" lon="6.1391">
        <ele>1597.8486328</ele>
        <time>2012-10-18T10:23:07Z</time>
      </trkpt>
      <trkpt lat="44.37073" lon="6.13915">
        <ele>1594.9643555</ele>
        <time>2012-10-18T10:23:27Z</time>
      </trkpt>
      <trkpt lat="44.37073" lon="6.13922">
        <ele>1593.041748</ele>
        <time>2012-10-18T10:23:45Z</time>
      </trkpt>
      <trkpt lat="44.37073" lon="6.13929">
        <ele>1590.157959</ele>
        <time>2012-10-18T10:24:02Z</time>
      </trkpt>
      <trkpt lat="44.37072" lon="6.13934">
        <ele>1588.7160645</ele>
        <time>2012-10-18T10:24:10Z</time>
      </trkpt>
      <trkpt lat="44.3707" lon="6.13939">
        <ele>1587.2739258</ele>
        <time>2012-10-18T10:24:22Z</time>
      </trkpt>
      <trkpt lat="44.37071" lon="6.13943">
        <ele>1586.3127441</ele>
        <time>2012-10-18T10:24:38Z</time>
      </trkpt>
      <trkpt lat="44.37071" lon="6.1395">
        <ele>1584.8708496</ele>
        <time>2012-10-18T10:24:53Z</time>
      </trkpt>
      <trkpt lat="44.37071" lon="6.13958">
        <ele>1584.8708496</ele>
        <time>2012-10-18T10:25:10Z</time>
      </trkpt>
      <trkpt lat="44.3707" lon="6.13965">
        <ele>1581.5061035</ele>
        <time>2012-10-18T10:25:27Z</time>
      </trkpt>
      <trkpt lat="44.3707" lon="6.13965">
        <ele>1581.5061035</ele>
        <time>2012-10-18T10:25:28Z</time>
      </trkpt>
      <trkpt lat="44.3707" lon="6.13965">
        <ele>1582.4675293</ele>
        <time>2012-10-18T10:25:30Z</time>
      </trkpt>
      <trkpt lat="44.3706" lon="6.13979">
        <ele>1580.5449219</ele>
        <time>2012-10-18T10:25:46Z</time>
      </trkpt>
      <trkpt lat="44.37051" lon="6.13983">
        <ele>1581.0256348</ele>
        <time>2012-10-18T10:25:59Z</time>
      </trkpt>
      <trkpt lat="44.37037" lon="6.13992">
        <ele>1582.4675293</ele>
        <time>2012-10-18T10:26:16Z</time>
      </trkpt>
      <trkpt lat="44.37031" lon="6.13999">
        <ele>1580.5449219</ele>
        <time>2012-10-18T10:26:28Z</time>
      </trkpt>
      <trkpt lat="44.37026" lon="6.14005">
        <ele>1577.6606445</ele>
        <time>2012-10-18T10:26:36Z</time>
      </trkpt>
      <trkpt lat="44.37026" lon="6.14006">
        <ele>1577.6606445</ele>
        <time>2012-10-18T10:26:37Z</time>
      </trkpt>
      <trkpt lat="44.37018" lon="6.14018">
        <ele>1574.7768555</ele>
        <time>2012-10-18T10:26:54Z</time>
      </trkpt>
      <trkpt lat="44.37007" lon="6.14024">
        <ele>1571.4121094</ele>
        <time>2012-10-18T10:27:15Z</time>
      </trkpt>
      <trkpt lat="44.36997" lon="6.14033">
        <ele>1568.5283203</ele>
        <time>2012-10-18T10:27:31Z</time>
      </trkpt>
      <trkpt lat="44.36982" lon="6.1405">
        <ele>1565.1638184</ele>
        <time>2012-10-18T10:27:57Z</time>
      </trkpt>
      <trkpt lat="44.36974" lon="6.14073">
        <ele>1561.7990723</ele>
        <time>2012-10-18T10:28:20Z</time>
      </trkpt>
      <trkpt lat="44.36965" lon="6.14094">
        <ele>1558.9150391</ele>
        <time>2012-10-18T10:28:44Z</time>
      </trkpt>
      <trkpt lat="44.36955" lon="6.141">
        <ele>1557.4731445</ele>
        <time>2012-10-18T10:29:02Z</time>
      </trkpt>
      <trkpt lat="44.36945" lon="6.14109">
        <ele>1554.5891113</ele>
        <time>2012-10-18T10:29:18Z</time>
      </trkpt>
      <trkpt lat="44.36939" lon="6.14111">
        <ele>1553.1472168</ele>
        <time>2012-10-18T10:29:42Z</time>
      </trkpt>
      <trkpt lat="44.36934" lon="6.14118">
        <ele>1549.7827148</ele>
        <time>2012-10-18T10:30:02Z</time>
      </trkpt>
      <trkpt lat="44.36931" lon="6.14124">
        <ele>1546.4179688</ele>
        <time>2012-10-18T10:30:21Z</time>
      </trkpt>
      <trkpt lat="44.36921" lon="6.1413">
        <ele>1543.5339355</ele>
        <time>2012-10-18T10:30:39Z</time>
      </trkpt>
      <trkpt lat="44.36911" lon="6.14135">
        <ele>1541.1306152</ele>
        <time>2012-10-18T10:30:57Z</time>
      </trkpt>
      <trkpt lat="44.36901" lon="6.1414">
        <ele>1538.2468262</ele>
        <time>2012-10-18T10:31:15Z</time>
      </trkpt>
      <trkpt lat="44.36897" lon="6.14143">
        <ele>1536.3242188</ele>
        <time>2012-10-18T10:31:30Z</time>
      </trkpt>
      <trkpt lat="44.36892" lon="6.14148">
        <ele>1533.9208984</ele>
        <time>2012-10-18T10:31:47Z</time>
      </trkpt>
      <trkpt lat="44.36886" lon="6.14159">
        <ele>1531.0368652</ele>
        <time>2012-10-18T10:32:07Z</time>
      </trkpt>
      <trkpt lat="44.36881" lon="6.14166">
        <ele>1527.6721191</ele>
        <time>2012-10-18T10:32:23Z</time>
      </trkpt>
      <trkpt lat="44.36875" lon="6.14179">
        <ele>1526.7109375</ele>
        <time>2012-10-18T10:32:43Z</time>
      </trkpt>
      <trkpt lat="44.36872" lon="6.14185">
        <ele>1525.7495117</ele>
        <time>2012-10-18T10:32:59Z</time>
      </trkpt>
      <trkpt lat="44.36869" lon="6.14192">
        <ele>1522.3850098</ele>
        <time>2012-10-18T10:33:10Z</time>
      </trkpt>
      <trkpt lat="44.36868" lon="6.14201">
        <ele>1519.9816895</ele>
        <time>2012-10-18T10:33:28Z</time>
      </trkpt>
      <trkpt lat="44.36868" lon="6.14212">
        <ele>1517.0979004</ele>
        <time>2012-10-18T10:33:41Z</time>
      </trkpt>
      <trkpt lat="44.36871" lon="6.14229">
        <ele>1513.7329102</ele>
        <time>2012-10-18T10:34:01Z</time>
      </trkpt>
      <trkpt lat="44.3687" lon="6.14236">
        <ele>1513.7329102</ele>
        <time>2012-10-18T10:34:11Z</time>
      </trkpt>
      <trkpt lat="44.3687" lon="6.14236">
        <ele>1512.2910156</ele>
        <time>2012-10-18T10:34:45Z</time>
      </trkpt>
      <trkpt lat="44.3687" lon="6.14236">
        <ele>1512.2910156</ele>
        <time>2012-10-18T10:34:46Z</time>
      </trkpt>
      <trkpt lat="44.3687" lon="6.14236">
        <ele>1514.213623</ele>
        <time>2012-10-18T10:34:50Z</time>
      </trkpt>
      <trkpt lat="44.3687" lon="6.14235">
        <ele>1512.2910156</ele>
        <time>2012-10-18T10:35:42Z</time>
      </trkpt>
      <trkpt lat="44.36877" lon="6.14242">
        <ele>1511.329834</ele>
        <time>2012-10-18T10:36:39Z</time>
      </trkpt>
      <trkpt lat="44.36887" lon="6.1425">
        <ele>1507.965332</ele>
        <time>2012-10-18T10:36:54Z</time>
      </trkpt>
      <trkpt lat="44.36903" lon="6.14261">
        <ele>1504.6005859</ele>
        <time>2012-10-18T10:37:19Z</time>
      </trkpt>
      <trkpt lat="44.36912" lon="6.14268">
        <ele>1501.236084</ele>
        <time>2012-10-18T10:37:36Z</time>
      </trkpt>
      <trkpt lat="44.3692" lon="6.14278">
        <ele>1498.3518066</ele>
        <time>2012-10-18T10:37:54Z</time>
      </trkpt>
      <trkpt lat="44.36925" lon="6.14287">
        <ele>1494.9873047</ele>
        <time>2012-10-18T10:38:10Z</time>
      </trkpt>
      <trkpt lat="44.36933" lon="6.143">
        <ele>1491.6228027</ele>
        <time>2012-10-18T10:38:27Z</time>
      </trkpt>
      <trkpt lat="44.36941" lon="6.14314">
        <ele>1488.7390137</ele>
        <time>2012-10-18T10:38:45Z</time>
      </trkpt>
      <trkpt lat="44.36953" lon="6.14333">
        <ele>1485.3742676</ele>
        <time>2012-10-18T10:39:08Z</time>
      </trkpt>
      <trkpt lat="44.36966" lon="6.14334">
        <ele>1483.451416</ele>
        <time>2012-10-18T10:39:27Z</time>
      </trkpt>
      <trkpt lat="44.36982" lon="6.14341">
        <ele>1480.567627</ele>
        <time>2012-10-18T10:39:48Z</time>
      </trkpt>
      <trkpt lat="44.36994" lon="6.14348">
        <ele>1477.6835938</ele>
        <time>2012-10-18T10:40:06Z</time>
      </trkpt>
      <trkpt lat="44.37005" lon="6.14356">
        <ele>1475.2802734</ele>
        <time>2012-10-18T10:40:25Z</time>
      </trkpt>
      <trkpt lat="44.37017" lon="6.14355">
        <ele>1472.8771973</ele>
        <time>2012-10-18T10:40:41Z</time>
      </trkpt>
      <trkpt lat="44.37017" lon="6.14362">
        <ele>1471.4350586</ele>
        <time>2012-10-18T10:40:49Z</time>
      </trkpt>
      <trkpt lat="44.37016" lon="6.1437">
        <ele>1469.9931641</ele>
        <time>2012-10-18T10:40:56Z</time>
      </trkpt>
      <trkpt lat="44.37017" lon="6.14387">
        <ele>1467.5895996</ele>
        <time>2012-10-18T10:41:09Z</time>
      </trkpt>
      <trkpt lat="44.37017" lon="6.14393">
        <ele>1467.1091309</ele>
        <time>2012-10-18T10:41:13Z</time>
      </trkpt>
      <trkpt lat="44.37017" lon="6.14408">
        <ele>1465.6672363</ele>
        <time>2012-10-18T10:41:24Z</time>
      </trkpt>
      <trkpt lat="44.37024" lon="6.14414">
        <ele>1464.7058105</ele>
        <time>2012-10-18T10:41:33Z</time>
      </trkpt>
      <trkpt lat="44.37022" lon="6.14445">
        <ele>1461.8220215</ele>
        <time>2012-10-18T10:41:52Z</time>
      </trkpt>
      <trkpt lat="44.3702" lon="6.14476">
        <ele>1459.8991699</ele>
        <time>2012-10-18T10:42:14Z</time>
      </trkpt>
      <trkpt lat="44.37017" lon="6.14485">
        <ele>1459.4187012</ele>
        <time>2012-10-18T10:42:22Z</time>
      </trkpt>
      <trkpt lat="44.37006" lon="6.14494">
        <ele>1457.4960938</ele>
        <time>2012-10-18T10:42:40Z</time>
      </trkpt>
      <trkpt lat="44.36995" lon="6.14498">
        <ele>1454.6120605</ele>
        <time>2012-10-18T10:42:55Z</time>
      </trkpt>
      <trkpt lat="44.36985" lon="6.145">
        <ele>1452.6894531</ele>
        <time>2012-10-18T10:43:09Z</time>
      </trkpt>
      <trkpt lat="44.36975" lon="6.14496">
        <ele>1454.6120605</ele>
        <time>2012-10-18T10:43:20Z</time>
      </trkpt>
      <trkpt lat="44.36973" lon="6.14497">
        <ele>1453.170166</ele>
        <time>2012-10-18T10:43:22Z</time>
      </trkpt>
      <trkpt lat="44.36967" lon="6.14502">
        <ele>1452.6894531</ele>
        <time>2012-10-18T10:43:29Z</time>
      </trkpt>
      <trkpt lat="44.36957" lon="6.14508">
        <ele>1451.2473145</ele>
        <time>2012-10-18T10:43:40Z</time>
      </trkpt>
      <trkpt lat="44.36954" lon="6.1451">
        <ele>1451.7280273</ele>
        <time>2012-10-18T10:43:44Z</time>
      </trkpt>
      <trkpt lat="44.36941" lon="6.14519">
        <ele>1448.8439941</ele>
        <time>2012-10-18T10:44:01Z</time>
      </trkpt>
      <trkpt lat="44.36933" lon="6.14533">
        <ele>1446.440918</ele>
        <time>2012-10-18T10:44:14Z</time>
      </trkpt>
      <trkpt lat="44.36917" lon="6.14546">
        <ele>1444.5180664</ele>
        <time>2012-10-18T10:44:33Z</time>
      </trkpt>
      <trkpt lat="44.36902" lon="6.14557">
        <ele>1443.0761719</ele>
        <time>2012-10-18T10:44:50Z</time>
      </trkpt>
      <trkpt lat="44.36895" lon="6.14563">
        <ele>1442.1149902</ele>
        <time>2012-10-18T10:45:05Z</time>
      </trkpt>
      <trkpt lat="44.3689" lon="6.14565">
        <ele>1442.1149902</ele>
        <time>2012-10-18T10:45:10Z</time>
      </trkpt>
      <trkpt lat="44.36884" lon="6.1456">
        <ele>1441.6342773</ele>
        <time>2012-10-18T10:45:17Z</time>
      </trkpt>
      <trkpt lat="44.36878" lon="6.14562">
        <ele>1441.1535645</ele>
        <time>2012-10-18T10:45:22Z</time>
      </trkpt>
      <trkpt lat="44.36872" lon="6.14559">
        <ele>1440.6728516</ele>
        <time>2012-10-18T10:45:28Z</time>
      </trkpt>
      <trkpt lat="44.3685" lon="6.14558">
        <ele>1438.2697754</ele>
        <time>2012-10-18T10:45:51Z</time>
      </trkpt>
      <trkpt lat="44.36848" lon="6.14558">
        <ele>1438.2697754</ele>
        <time>2012-10-18T10:45:53Z</time>
      </trkpt>
      <trkpt lat="44.36826" lon="6.14573">
        <ele>1435.8662109</ele>
        <time>2012-10-18T10:46:20Z</time>
      </trkpt>
      <trkpt lat="44.36808" lon="6.14578">
        <ele>1432.9821777</ele>
        <time>2012-10-18T10:46:42Z</time>
      </trkpt>
      <trkpt lat="44.36801" lon="6.14578">
        <ele>1431.5402832</ele>
        <time>2012-10-18T10:46:51Z</time>
      </trkpt>
      <trkpt lat="44.36793" lon="6.14589">
        <ele>1432.501709</ele>
        <time>2012-10-18T10:47:03Z</time>
      </trkpt>
      <trkpt lat="44.36788" lon="6.146">
        <ele>1431.5402832</ele>
        <time>2012-10-18T10:47:13Z</time>
      </trkpt>
      <trkpt lat="44.36775" lon="6.14622">
        <ele>1429.1369629</ele>
        <time>2012-10-18T10:47:36Z</time>
      </trkpt>
      <trkpt lat="44.36769" lon="6.14634">
        <ele>1425.7724609</ele>
        <time>2012-10-18T10:47:50Z</time>
      </trkpt>
      <trkpt lat="44.36757" lon="6.14652">
        <ele>1422.8886719</ele>
        <time>2012-10-18T10:48:13Z</time>
      </trkpt>
      <trkpt lat="44.36756" lon="6.14653">
        <ele>1422.8886719</ele>
        <time>2012-10-18T10:48:14Z</time>
      </trkpt>
      <trkpt lat="44.36752" lon="6.14657">
        <ele>1421.9272461</ele>
        <time>2012-10-18T10:48:20Z</time>
      </trkpt>
      <trkpt lat="44.36739" lon="6.14683">
        <ele>1419.5239258</ele>
        <time>2012-10-18T10:48:46Z</time>
      </trkpt>
      <trkpt lat="44.3673" lon="6.14698">
        <ele>1418.0817871</ele>
        <time>2012-10-18T10:49:02Z</time>
      </trkpt>
      <trkpt lat="44.36726" lon="6.14707">
        <ele>1416.1591797</ele>
        <time>2012-10-18T10:49:12Z</time>
      </trkpt>
      <trkpt lat="44.36722" lon="6.14711">
        <ele>1414.7172852</ele>
        <time>2012-10-18T10:49:19Z</time>
      </trkpt>
      <trkpt lat="44.36716" lon="6.14725">
        <ele>1412.3139648</ele>
        <time>2012-10-18T10:49:35Z</time>
      </trkpt>
      <trkpt lat="44.36698" lon="6.14742">
        <ele>1409.4301758</ele>
        <time>2012-10-18T10:50:04Z</time>
      </trkpt>
      <trkpt lat="44.36682" lon="6.14749">
        <ele>1406.0654297</ele>
        <time>2012-10-18T10:50:24Z</time>
      </trkpt>
      <trkpt lat="44.36665" lon="6.14762">
        <ele>1403.6621094</ele>
        <time>2012-10-18T10:50:45Z</time>
      </trkpt>
      <trkpt lat="44.36652" lon="6.1478">
        <ele>1401.739502</ele>
        <time>2012-10-18T10:51:05Z</time>
      </trkpt>
      <trkpt lat="44.36634" lon="6.14795">
        <ele>1398.8554688</ele>
        <time>2012-10-18T10:51:29Z</time>
      </trkpt>
      <trkpt lat="44.36622" lon="6.148">
        <ele>1395.4909668</ele>
        <time>2012-10-18T10:51:45Z</time>
      </trkpt>
      <trkpt lat="44.36602" lon="6.14802">
        <ele>1392.6071777</ele>
        <time>2012-10-18T10:52:08Z</time>
      </trkpt>
      <trkpt lat="44.3659" lon="6.14803">
        <ele>1391.1650391</ele>
        <time>2012-10-18T10:52:25Z</time>
      </trkpt>
      <trkpt lat="44.36594" lon="6.14812">
        <ele>1389.7231445</ele>
        <time>2012-10-18T10:52:38Z</time>
      </trkpt>
      <trkpt lat="44.36593" lon="6.14828">
        <ele>1386.3583984</ele>
        <time>2012-10-18T10:52:53Z</time>
      </trkpt>
      <trkpt lat="44.36582" lon="6.14834">
        <ele>1384.435791</ele>
        <time>2012-10-18T10:53:09Z</time>
      </trkpt>
      <trkpt lat="44.36565" lon="6.14838">
        <ele>1381.0712891</ele>
        <time>2012-10-18T10:53:27Z</time>
      </trkpt>
      <trkpt lat="44.3656" lon="6.1484">
        <ele>1380.5905762</ele>
        <time>2012-10-18T10:53:32Z</time>
      </trkpt>
      <trkpt lat="44.36556" lon="6.14843">
        <ele>1380.5905762</ele>
        <time>2012-10-18T10:53:36Z</time>
      </trkpt>
      <trkpt lat="44.3655" lon="6.14846">
        <ele>1378.6679688</ele>
        <time>2012-10-18T10:53:50Z</time>
      </trkpt>
      <trkpt lat="44.36539" lon="6.14851">
        <ele>1375.7839355</ele>
        <time>2012-10-18T10:54:07Z</time>
      </trkpt>
      <trkpt lat="44.36529" lon="6.14858">
        <ele>1372.4194336</ele>
        <time>2012-10-18T10:54:23Z</time>
      </trkpt>
      <trkpt lat="44.36524" lon="6.14858">
        <ele>1370.9772949</ele>
        <time>2012-10-18T10:54:51Z</time>
      </trkpt>
      <trkpt lat="44.3651" lon="6.14864">
        <ele>1367.6125488</ele>
        <time>2012-10-18T10:55:09Z</time>
      </trkpt>
      <trkpt lat="44.365" lon="6.14873">
        <ele>1364.2480469</ele>
        <time>2012-10-18T10:55:23Z</time>
      </trkpt>
      <trkpt lat="44.36491" lon="6.14885">
        <ele>1360.8835449</ele>
        <time>2012-10-18T10:55:37Z</time>
      </trkpt>
      <trkpt lat="44.3648" lon="6.1489">
        <ele>1357.9997559</ele>
        <time>2012-10-18T10:55:53Z</time>
      </trkpt>
      <trkpt lat="44.36481" lon="6.14906">
        <ele>1354.6347656</ele>
        <time>2012-10-18T10:56:10Z</time>
      </trkpt>
      <trkpt lat="44.36482" lon="6.14925">
        <ele>1351.7509766</ele>
        <time>2012-10-18T10:56:26Z</time>
      </trkpt>
      <trkpt lat="44.36479" lon="6.14937">
        <ele>1348.3862305</ele>
        <time>2012-10-18T10:56:42Z</time>
      </trkpt>
      <trkpt lat="44.3647" lon="6.14946">
        <ele>1345.0217285</ele>
        <time>2012-10-18T10:56:58Z</time>
      </trkpt>
      <trkpt lat="44.36473" lon="6.14961">
        <ele>1342.6186523</ele>
        <time>2012-10-18T10:57:13Z</time>
      </trkpt>
      <trkpt lat="44.36473" lon="6.14976">
        <ele>1339.734375</ele>
        <time>2012-10-18T10:57:26Z</time>
      </trkpt>
      <trkpt lat="44.36478" lon="6.14991">
        <ele>1336.369873</ele>
        <time>2012-10-18T10:57:42Z</time>
      </trkpt>
      <trkpt lat="44.36482" lon="6.15004">
        <ele>1333.4858398</ele>
        <time>2012-10-18T10:57:54Z</time>
      </trkpt>
      <trkpt lat="44.36486" lon="6.15009">
        <ele>1333.005127</ele>
        <time>2012-10-18T10:58:00Z</time>
      </trkpt>
      <trkpt lat="44.3649" lon="6.15015">
        <ele>1332.0439453</ele>
        <time>2012-10-18T10:58:06Z</time>
      </trkpt>
      <trkpt lat="44.36494" lon="6.15016">
        <ele>1331.5632324</ele>
        <time>2012-10-18T10:58:11Z</time>
      </trkpt>
      <trkpt lat="44.36501" lon="6.15014">
        <ele>1330.6020508</ele>
        <time>2012-10-18T10:58:19Z</time>
      </trkpt>
      <trkpt lat="44.36505" lon="6.15011">
        <ele>1330.6020508</ele>
        <time>2012-10-18T10:58:23Z</time>
      </trkpt>
      <trkpt lat="44.36507" lon="6.15012">
        <ele>1331.0827637</ele>
        <time>2012-10-18T10:58:45Z</time>
      </trkpt>
      <trkpt lat="44.36507" lon="6.15012">
        <ele>1327.7180176</ele>
        <time>2012-10-18T10:58:49Z</time>
      </trkpt>
      <trkpt lat="44.36507" lon="6.15012">
        <ele>1327.7180176</ele>
        <time>2012-10-18T10:58:50Z</time>
      </trkpt>
      <trkpt lat="44.36507" lon="6.15012">
        <ele>1330.6020508</ele>
        <time>2012-10-18T10:58:52Z</time>
      </trkpt>
      <trkpt lat="44.36507" lon="6.15012">
        <ele>1330.6020508</ele>
        <time>2012-10-18T10:59:02Z</time>
      </trkpt>
      <trkpt lat="44.36507" lon="6.15012">
        <ele>1328.1987305</ele>
        <time>2012-10-18T10:59:07Z</time>
      </trkpt>
      <trkpt lat="44.36507" lon="6.15012">
        <ele>1330.1213379</ele>
        <time>2012-10-18T10:59:09Z</time>
      </trkpt>
      <trkpt lat="44.36508" lon="6.15011">
        <ele>1331.0827637</ele>
        <time>2012-10-18T10:59:28Z</time>
      </trkpt>
      <trkpt lat="44.36509" lon="6.15008">
        <ele>1330.1213379</ele>
        <time>2012-10-18T10:59:31Z</time>
      </trkpt>
      <trkpt lat="44.36513" lon="6.15005">
        <ele>1330.6020508</ele>
        <time>2012-10-18T10:59:45Z</time>
      </trkpt>
      <trkpt lat="44.36512" lon="6.15005">
        <ele>1330.1213379</ele>
        <time>2012-10-18T10:59:59Z</time>
      </trkpt>
      <trkpt lat="44.36526" lon="6.14992">
        <ele>1331.0827637</ele>
        <time>2012-10-18T11:00:14Z</time>
      </trkpt>
      <trkpt lat="44.36533" lon="6.14989">
        <ele>1332.5246582</ele>
        <time>2012-10-18T11:00:21Z</time>
      </trkpt>
      <trkpt lat="44.36534" lon="6.14987">
        <ele>1331.5632324</ele>
        <time>2012-10-18T11:00:22Z</time>
      </trkpt>
      <trkpt lat="44.36555" lon="6.14988">
        <ele>1333.4858398</ele>
        <time>2012-10-18T11:00:43Z</time>
      </trkpt>
      <trkpt lat="44.36576" lon="6.14991">
        <ele>1335.4084473</ele>
        <time>2012-10-18T11:01:06Z</time>
      </trkpt>
      <trkpt lat="44.36597" lon="6.1499">
        <ele>1336.8503418</ele>
        <time>2012-10-18T11:01:28Z</time>
      </trkpt>
      <trkpt lat="44.36619" lon="6.14987">
        <ele>1337.8117676</ele>
        <time>2012-10-18T11:01:51Z</time>
      </trkpt>
      <trkpt lat="44.36624" lon="6.14986">
        <ele>1338.7731934</ele>
        <time>2012-10-18T11:01:57Z</time>
      </trkpt>
      <trkpt lat="44.36655" lon="6.14976">
        <ele>1340.215332</ele>
        <time>2012-10-18T11:02:27Z</time>
      </trkpt>
      <trkpt lat="44.36683" lon="6.14963">
        <ele>1342.6186523</ele>
        <time>2012-10-18T11:02:58Z</time>
      </trkpt>
      <trkpt lat="44.36699" lon="6.14957">
        <ele>1343.0991211</ele>
        <time>2012-10-18T11:03:15Z</time>
      </trkpt>
      <trkpt lat="44.36726" lon="6.14944">
        <ele>1344.0605469</ele>
        <time>2012-10-18T11:03:40Z</time>
      </trkpt>
      <trkpt lat="44.36757" lon="6.14939">
        <ele>1342.6186523</ele>
        <time>2012-10-18T11:04:09Z</time>
      </trkpt>
      <trkpt lat="44.36781" lon="6.14937">
        <ele>1342.6186523</ele>
        <time>2012-10-18T11:04:33Z</time>
      </trkpt>
      <trkpt lat="44.3681" lon="6.14922">
        <ele>1342.6186523</ele>
        <time>2012-10-18T11:05:03Z</time>
      </trkpt>
      <trkpt lat="44.36826" lon="6.14894">
        <ele>1341.1765137</ele>
        <time>2012-10-18T11:05:28Z</time>
      </trkpt>
      <trkpt lat="44.36832" lon="6.14879">
        <ele>1340.6958008</ele>
        <time>2012-10-18T11:05:41Z</time>
      </trkpt>
      <trkpt lat="44.36836" lon="6.14876">
        <ele>1340.6958008</ele>
        <time>2012-10-18T11:05:46Z</time>
      </trkpt>
      <trkpt lat="44.36859" lon="6.14888">
        <ele>1340.215332</ele>
        <time>2012-10-18T11:06:10Z</time>
      </trkpt>
      <trkpt lat="44.3688" lon="6.14911">
        <ele>1341.6572266</ele>
        <time>2012-10-18T11:06:37Z</time>
      </trkpt>
      <trkpt lat="44.36899" lon="6.14912">
        <ele>1342.6186523</ele>
        <time>2012-10-18T11:06:57Z</time>
      </trkpt>
      <trkpt lat="44.36925" lon="6.14922">
        <ele>1342.6186523</ele>
        <time>2012-10-18T11:07:25Z</time>
      </trkpt>
      <trkpt lat="44.36944" lon="6.14947">
        <ele>1342.6186523</ele>
        <time>2012-10-18T11:07:51Z</time>
      </trkpt>
      <trkpt lat="44.36963" lon="6.14955">
        <ele>1344.5410156</ele>
        <time>2012-10-18T11:08:12Z</time>
      </trkpt>
      <trkpt lat="44.36967" lon="6.14956">
        <ele>1344.5410156</ele>
        <time>2012-10-18T11:08:16Z</time>
      </trkpt>
      <trkpt lat="44.36988" lon="6.14952">
        <ele>1345.9831543</ele>
        <time>2012-10-18T11:08:39Z</time>
      </trkpt>
      <trkpt lat="44.37005" lon="6.14944">
        <ele>1347.9057617</ele>
        <time>2012-10-18T11:08:58Z</time>
      </trkpt>
      <trkpt lat="44.3703" lon="6.14929">
        <ele>1349.3476563</ele>
        <time>2012-10-18T11:09:26Z</time>
      </trkpt>
      <trkpt lat="44.37046" lon="6.14901">
        <ele>1349.8283691</ele>
        <time>2012-10-18T11:09:49Z</time>
      </trkpt>
      <trkpt lat="44.37074" lon="6.14886">
        <ele>1352.2314453</ele>
        <time>2012-10-18T11:10:20Z</time>
      </trkpt>
      <trkpt lat="44.37096" lon="6.14874">
        <ele>1355.1154785</ele>
        <time>2012-10-18T11:10:48Z</time>
      </trkpt>
      <trkpt lat="44.37111" lon="6.14869">
        <ele>1357.0383301</ele>
        <time>2012-10-18T11:11:05Z</time>
      </trkpt>
      <trkpt lat="44.37114" lon="6.14874">
        <ele>1357.0383301</ele>
        <time>2012-10-18T11:11:10Z</time>
      </trkpt>
      <trkpt lat="44.37108" lon="6.149">
        <ele>1358.9609375</ele>
        <time>2012-10-18T11:11:32Z</time>
      </trkpt>
      <trkpt lat="44.37091" lon="6.14929">
        <ele>1361.3642578</ele>
        <time>2012-10-18T11:12:01Z</time>
      </trkpt>
      <trkpt lat="44.37071" lon="6.14961">
        <ele>1363.767334</ele>
        <time>2012-10-18T11:12:34Z</time>
      </trkpt>
      <trkpt lat="44.37062" lon="6.1499">
        <ele>1367.1320801</ele>
        <time>2012-10-18T11:13:01Z</time>
      </trkpt>
      <trkpt lat="44.37061" lon="6.15017">
        <ele>1370.496582</ele>
        <time>2012-10-18T11:13:24Z</time>
      </trkpt>
      <trkpt lat="44.37068" lon="6.15048">
        <ele>1372.4194336</ele>
        <time>2012-10-18T11:13:54Z</time>
      </trkpt>
      <trkpt lat="44.37081" lon="6.1508">
        <ele>1375.3032227</ele>
        <time>2012-10-18T11:14:27Z</time>
      </trkpt>
      <trkpt lat="44.37093" lon="6.15109">
        <ele>1378.6679688</ele>
        <time>2012-10-18T11:14:57Z</time>
      </trkpt>
      <trkpt lat="44.37103" lon="6.15139">
        <ele>1382.0324707</ele>
        <time>2012-10-18T11:15:27Z</time>
      </trkpt>
      <trkpt lat="44.37115" lon="6.15166">
        <ele>1385.3969727</ele>
        <time>2012-10-18T11:15:57Z</time>
      </trkpt>
      <trkpt lat="44.37132" lon="6.15195">
        <ele>1388.28125</ele>
        <time>2012-10-18T11:16:32Z</time>
      </trkpt>
      <trkpt lat="44.37147" lon="6.15216">
        <ele>1391.1650391</ele>
        <time>2012-10-18T11:17:01Z</time>
      </trkpt>
      <trkpt lat="44.37149" lon="6.15224">
        <ele>1392.6071777</ele>
        <time>2012-10-18T11:17:18Z</time>
      </trkpt>
      <trkpt lat="44.37157" lon="6.15234">
        <ele>1394.529541</ele>
        <time>2012-10-18T11:17:33Z</time>
      </trkpt>
      <trkpt lat="44.37162" lon="6.15249">
        <ele>1395.0102539</ele>
        <time>2012-10-18T11:17:46Z</time>
      </trkpt>
      <trkpt lat="44.37167" lon="6.1529">
        <ele>1396.4523926</ele>
        <time>2012-10-18T11:18:16Z</time>
      </trkpt>
      <trkpt lat="44.37171" lon="6.15316">
        <ele>1398.3747559</ele>
        <time>2012-10-18T11:18:37Z</time>
      </trkpt>
      <trkpt lat="44.37173" lon="6.1533">
        <ele>1399.8168945</ele>
        <time>2012-10-18T11:18:54Z</time>
      </trkpt>
      <trkpt lat="44.3719" lon="6.15352">
        <ele>1402.7006836</ele>
        <time>2012-10-18T11:19:26Z</time>
      </trkpt>
      <trkpt lat="44.372" lon="6.15341">
        <ele>1403.6621094</ele>
        <time>2012-10-18T11:19:45Z</time>
      </trkpt>
      <trkpt lat="44.37207" lon="6.15334">
        <ele>1404.6235352</ele>
        <time>2012-10-18T11:20:06Z</time>
      </trkpt>
      <trkpt lat="44.37218" lon="6.15331">
        <ele>1407.5075684</ele>
        <time>2012-10-18T11:20:22Z</time>
      </trkpt>
      <trkpt lat="44.37233" lon="6.15343">
        <ele>1410.8720703</ele>
        <time>2012-10-18T11:20:47Z</time>
      </trkpt>
      <trkpt lat="44.37248" lon="6.15356">
        <ele>1413.7558594</ele>
        <time>2012-10-18T11:21:11Z</time>
      </trkpt>
      <trkpt lat="44.37249" lon="6.15364">
        <ele>1414.2365723</ele>
        <time>2012-10-18T11:21:27Z</time>
      </trkpt>
      <trkpt lat="44.3725" lon="6.15369">
        <ele>1412.7946777</ele>
        <time>2012-10-18T11:21:40Z</time>
      </trkpt>
      <trkpt lat="44.37249" lon="6.15368">
        <ele>1414.7172852</ele>
        <time>2012-10-18T11:21:43Z</time>
      </trkpt>
      <trkpt lat="44.3725" lon="6.15368">
        <ele>1414.2365723</ele>
        <time>2012-10-18T11:22:17Z</time>
      </trkpt>
      <trkpt lat="44.37253" lon="6.15382">
        <ele>1414.7172852</ele>
        <time>2012-10-18T11:22:35Z</time>
      </trkpt>
      <trkpt lat="44.37262" lon="6.154">
        <ele>1411.3527832</ele>
        <time>2012-10-18T11:22:56Z</time>
      </trkpt>
      <trkpt lat="44.37264" lon="6.15419">
        <ele>1408.46875</ele>
        <time>2012-10-18T11:23:18Z</time>
      </trkpt>
      <trkpt lat="44.37269" lon="6.15431">
        <ele>1406.0654297</ele>
        <time>2012-10-18T11:23:34Z</time>
      </trkpt>
      <trkpt lat="44.37269" lon="6.15432">
        <ele>1406.0654297</ele>
        <time>2012-10-18T11:23:35Z</time>
      </trkpt>
      <trkpt lat="44.37271" lon="6.15435">
        <ele>1405.5849609</ele>
        <time>2012-10-18T11:23:39Z</time>
      </trkpt>
      <trkpt lat="44.37269" lon="6.15449">
        <ele>1403.1813965</ele>
        <time>2012-10-18T11:23:56Z</time>
      </trkpt>
      <trkpt lat="44.37266" lon="6.15463">
        <ele>1400.7780762</ele>
        <time>2012-10-18T11:24:15Z</time>
      </trkpt>
      <trkpt lat="44.3727" lon="6.15472">
        <ele>1397.8942871</ele>
        <time>2012-10-18T11:24:31Z</time>
      </trkpt>
      <trkpt lat="44.37275" lon="6.15481">
        <ele>1395.9716797</ele>
        <time>2012-10-18T11:24:46Z</time>
      </trkpt>
      <trkpt lat="44.37283" lon="6.15496">
        <ele>1393.0876465</ele>
        <time>2012-10-18T11:25:07Z</time>
      </trkpt>
      <trkpt lat="44.37285" lon="6.15508">
        <ele>1389.7231445</ele>
        <time>2012-10-18T11:25:23Z</time>
      </trkpt>
      <trkpt lat="44.37281" lon="6.1552">
        <ele>1387.3195801</ele>
        <time>2012-10-18T11:25:41Z</time>
      </trkpt>
      <trkpt lat="44.37276" lon="6.15531">
        <ele>1385.3969727</ele>
        <time>2012-10-18T11:25:57Z</time>
      </trkpt>
      <trkpt lat="44.37271" lon="6.15542">
        <ele>1382.9936523</ele>
        <time>2012-10-18T11:26:13Z</time>
      </trkpt>
      <trkpt lat="44.37266" lon="6.1555">
        <ele>1381.5517578</ele>
        <time>2012-10-18T11:26:27Z</time>
      </trkpt>
      <trkpt lat="44.37253" lon="6.15564">
        <ele>1378.1872559</ele>
        <time>2012-10-18T11:26:50Z</time>
      </trkpt>
      <trkpt lat="44.37247" lon="6.15588">
        <ele>1375.3032227</ele>
        <time>2012-10-18T11:27:11Z</time>
      </trkpt>
      <trkpt lat="44.37244" lon="6.15612">
        <ele>1371.4577637</ele>
        <time>2012-10-18T11:27:30Z</time>
      </trkpt>
      <trkpt lat="44.37242" lon="6.15613">
        <ele>1373.3808594</ele>
        <time>2012-10-18T11:27:45Z</time>
      </trkpt>
      <trkpt lat="44.37242" lon="6.15613">
        <ele>1372.4194336</ele>
        <time>2012-10-18T11:27:47Z</time>
      </trkpt>
      <trkpt lat="44.37242" lon="6.15613">
        <ele>1370.9772949</ele>
        <time>2012-10-18T11:28:08Z</time>
      </trkpt>
      <trkpt lat="44.37242" lon="6.15613">
        <ele>1372.4194336</ele>
        <time>2012-10-18T11:28:38Z</time>
      </trkpt>
      <trkpt lat="44.37242" lon="6.15613">
        <ele>1370.9772949</ele>
        <time>2012-10-18T11:28:40Z</time>
      </trkpt>
      <trkpt lat="44.37242" lon="6.15613">
        <ele>1370.496582</ele>
        <time>2012-10-18T11:28:47Z</time>
      </trkpt>
      <trkpt lat="44.37242" lon="6.15612">
        <ele>1371.4577637</ele>
        <time>2012-10-18T11:29:17Z</time>
      </trkpt>
      <trkpt lat="44.37242" lon="6.15614">
        <ele>1370.9772949</ele>
        <time>2012-10-18T11:29:31Z</time>
      </trkpt>
      <trkpt lat="44.37244" lon="6.15623">
        <ele>1370.496582</ele>
        <time>2012-10-18T11:29:47Z</time>
      </trkpt>
      <trkpt lat="44.37241" lon="6.15636">
        <ele>1370.0158691</ele>
        <time>2012-10-18T11:29:59Z</time>
      </trkpt>
      <trkpt lat="44.3724" lon="6.1564">
        <ele>1369.5354004</ele>
        <time>2012-10-18T11:30:02Z</time>
      </trkpt>
      <trkpt lat="44.37237" lon="6.15669">
        <ele>1369.0546875</ele>
        <time>2012-10-18T11:30:22Z</time>
      </trkpt>
      <trkpt lat="44.37232" lon="6.15684">
        <ele>1369.0546875</ele>
        <time>2012-10-18T11:30:34Z</time>
      </trkpt>
      <trkpt lat="44.3724" lon="6.15711">
        <ele>1368.0932617</ele>
        <time>2012-10-18T11:30:55Z</time>
      </trkpt>
      <trkpt lat="44.37243" lon="6.1572">
        <ele>1368.5739746</ele>
        <time>2012-10-18T11:31:03Z</time>
      </trkpt>
      <trkpt lat="44.37244" lon="6.15734">
        <ele>1368.5739746</ele>
        <time>2012-10-18T11:31:13Z</time>
      </trkpt>
      <trkpt lat="44.37244" lon="6.15745">
        <ele>1368.5739746</ele>
        <time>2012-10-18T11:31:21Z</time>
      </trkpt>
      <trkpt lat="44.37239" lon="6.15763">
        <ele>1368.5739746</ele>
        <time>2012-10-18T11:31:36Z</time>
      </trkpt>
      <trkpt lat="44.37237" lon="6.15791">
        <ele>1370.0158691</ele>
        <time>2012-10-18T11:31:56Z</time>
      </trkpt>
      <trkpt lat="44.37228" lon="6.15803">
        <ele>1370.9772949</ele>
        <time>2012-10-18T11:32:12Z</time>
      </trkpt>
      <trkpt lat="44.37223" lon="6.15817">
        <ele>1370.496582</ele>
        <time>2012-10-18T11:32:27Z</time>
      </trkpt>
      <trkpt lat="44.3722" lon="6.15839">
        <ele>1368.5739746</ele>
        <time>2012-10-18T11:32:45Z</time>
      </trkpt>
      <trkpt lat="44.37218" lon="6.15855">
        <ele>1365.2094727</ele>
        <time>2012-10-18T11:33:05Z</time>
      </trkpt>
      <trkpt lat="44.37218" lon="6.15868">
        <ele>1362.3254395</ele>
        <time>2012-10-18T11:33:29Z</time>
      </trkpt>
      <trkpt lat="44.37222" lon="6.15877">
        <ele>1358.9609375</ele>
        <time>2012-10-18T11:33:47Z</time>
      </trkpt>
      <trkpt lat="44.37226" lon="6.15887">
        <ele>1356.5576172</ele>
        <time>2012-10-18T11:34:05Z</time>
      </trkpt>
      <trkpt lat="44.37231" lon="6.15898">
        <ele>1353.673584</ele>
        <time>2012-10-18T11:34:22Z</time>
      </trkpt>
      <trkpt lat="44.37236" lon="6.15909">
        <ele>1349.8283691</ele>
        <time>2012-10-18T11:34:43Z</time>
      </trkpt>
      <trkpt lat="44.37239" lon="6.15917">
        <ele>1347.9057617</ele>
        <time>2012-10-18T11:35:02Z</time>
      </trkpt>
      <trkpt lat="44.37237" lon="6.15926">
        <ele>1344.5410156</ele>
        <time>2012-10-18T11:35:20Z</time>
      </trkpt>
      <trkpt lat="44.37236" lon="6.15935">
        <ele>1341.6572266</ele>
        <time>2012-10-18T11:35:36Z</time>
      </trkpt>
      <trkpt lat="44.37241" lon="6.15945">
        <ele>1338.2924805</ele>
        <time>2012-10-18T11:35:54Z</time>
      </trkpt>
      <trkpt lat="44.37241" lon="6.15945">
        <ele>1337.8117676</ele>
        <time>2012-10-18T11:35:56Z</time>
      </trkpt>
      <trkpt lat="44.37249" lon="6.15951">
        <ele>1333.9665527</ele>
        <time>2012-10-18T11:36:15Z</time>
      </trkpt>
      <trkpt lat="44.37259" lon="6.15962">
        <ele>1331.5632324</ele>
        <time>2012-10-18T11:36:33Z</time>
      </trkpt>
      <trkpt lat="44.37263" lon="6.15974">
        <ele>1328.6794434</ele>
        <time>2012-10-18T11:36:48Z</time>
      </trkpt>
      <trkpt lat="44.37263" lon="6.15982">
        <ele>1326.7568359</ele>
        <time>2012-10-18T11:36:58Z</time>
      </trkpt>
      <trkpt lat="44.37264" lon="6.15987">
        <ele>1326.276123</ele>
        <time>2012-10-18T11:37:04Z</time>
      </trkpt>
      <trkpt lat="44.37265" lon="6.15999">
        <ele>1324.8342285</ele>
        <time>2012-10-18T11:37:15Z</time>
      </trkpt>
      <trkpt lat="44.3727" lon="6.16014">
        <ele>1321.9499512</ele>
        <time>2012-10-18T11:37:29Z</time>
      </trkpt>
      <trkpt lat="44.37277" lon="6.16022">
        <ele>1319.0661621</ele>
        <time>2012-10-18T11:37:44Z</time>
      </trkpt>
      <trkpt lat="44.37286" lon="6.16028">
        <ele>1315.7016602</ele>
        <time>2012-10-18T11:37:59Z</time>
      </trkpt>
      <trkpt lat="44.373" lon="6.16036">
        <ele>1312.817627</ele>
        <time>2012-10-18T11:38:17Z</time>
      </trkpt>
      <trkpt lat="44.37307" lon="6.16039">
        <ele>1310.4143066</ele>
        <time>2012-10-18T11:38:33Z</time>
      </trkpt>
      <trkpt lat="44.37315" lon="6.16045">
        <ele>1307.0495605</ele>
        <time>2012-10-18T11:38:53Z</time>
      </trkpt>
      <trkpt lat="44.37321" lon="6.16053">
        <ele>1303.6850586</ele>
        <time>2012-10-18T11:39:18Z</time>
      </trkpt>
      <trkpt lat="44.37322" lon="6.16061">
        <ele>1300.8010254</ele>
        <time>2012-10-18T11:39:39Z</time>
      </trkpt>
      <trkpt lat="44.37326" lon="6.16066">
        <ele>1297.9172363</ele>
        <time>2012-10-18T11:39:55Z</time>
      </trkpt>
      <trkpt lat="44.37327" lon="6.16076">
        <ele>1294.5524902</ele>
        <time>2012-10-18T11:40:12Z</time>
      </trkpt>
      <trkpt lat="44.37333" lon="6.16079">
        <ele>1291.1877441</ele>
        <time>2012-10-18T11:40:33Z</time>
      </trkpt>
      <trkpt lat="44.37341" lon="6.1608">
        <ele>1287.8232422</ele>
        <time>2012-10-18T11:40:49Z</time>
      </trkpt>
      <trkpt lat="44.37351" lon="6.16083">
        <ele>1284.9394531</ele>
        <time>2012-10-18T11:41:05Z</time>
      </trkpt>
      <trkpt lat="44.37364" lon="6.1609">
        <ele>1282.0554199</ele>
        <time>2012-10-18T11:41:26Z</time>
      </trkpt>
      <trkpt lat="44.37373" lon="6.16098">
        <ele>1279.6520996</ele>
        <time>2012-10-18T11:41:45Z</time>
      </trkpt>
      <trkpt lat="44.3738" lon="6.16105">
        <ele>1277.2490234</ele>
        <time>2012-10-18T11:42:01Z</time>
      </trkpt>
      <trkpt lat="44.37388" lon="6.16116">
        <ele>1273.8840332</ele>
        <time>2012-10-18T11:42:17Z</time>
      </trkpt>
      <trkpt lat="44.37395" lon="6.16123">
        <ele>1270.5195313</ele>
        <time>2012-10-18T11:42:33Z</time>
      </trkpt>
      <trkpt lat="44.37404" lon="6.16128">
        <ele>1267.1550293</ele>
        <time>2012-10-18T11:42:49Z</time>
      </trkpt>
      <trkpt lat="44.37413" lon="6.16134">
        <ele>1263.7902832</ele>
        <time>2012-10-18T11:43:05Z</time>
      </trkpt>
      <trkpt lat="44.37424" lon="6.16144">
        <ele>1260.9064941</ele>
        <time>2012-10-18T11:43:22Z</time>
      </trkpt>
      <trkpt lat="44.37435" lon="6.16153">
        <ele>1258.0224609</ele>
        <time>2012-10-18T11:43:40Z</time>
      </trkpt>
      <trkpt lat="44.37438" lon="6.16156">
        <ele>1257.0610352</ele>
        <time>2012-10-18T11:43:44Z</time>
      </trkpt>
      <trkpt lat="44.37446" lon="6.16166">
        <ele>1255.1384277</ele>
        <time>2012-10-18T11:43:59Z</time>
      </trkpt>
      <trkpt lat="44.37456" lon="6.16171">
        <ele>1251.7739258</ele>
        <time>2012-10-18T11:44:15Z</time>
      </trkpt>
      <trkpt lat="44.37468" lon="6.16178">
        <ele>1248.8898926</ele>
        <time>2012-10-18T11:44:33Z</time>
      </trkpt>
      <trkpt lat="44.37478" lon="6.16183">
        <ele>1245.5253906</ele>
        <time>2012-10-18T11:44:49Z</time>
      </trkpt>
      <trkpt lat="44.37482" lon="6.16187">
        <ele>1244.0834961</ele>
        <time>2012-10-18T11:45:15Z</time>
      </trkpt>
      <trkpt lat="44.37488" lon="6.16191">
        <ele>1240.7185059</ele>
        <time>2012-10-18T11:45:31Z</time>
      </trkpt>
      <trkpt lat="44.37495" lon="6.16197">
        <ele>1237.3540039</ele>
        <time>2012-10-18T11:45:49Z</time>
      </trkpt>
      <trkpt lat="44.37502" lon="6.16201">
        <ele>1233.989502</ele>
        <time>2012-10-18T11:46:10Z</time>
      </trkpt>
      <trkpt lat="44.37503" lon="6.16202">
        <ele>1233.5087891</ele>
        <time>2012-10-18T11:46:12Z</time>
      </trkpt>
      <trkpt lat="44.37506" lon="6.16213">
        <ele>1230.1442871</ele>
        <time>2012-10-18T11:46:29Z</time>
      </trkpt>
      <trkpt lat="44.37508" lon="6.16225">
        <ele>1226.779541</ele>
        <time>2012-10-18T11:46:45Z</time>
      </trkpt>
      <trkpt lat="44.37507" lon="6.16237">
        <ele>1223.8955078</ele>
        <time>2012-10-18T11:47:09Z</time>
      </trkpt>
      <trkpt lat="44.37505" lon="6.16248">
        <ele>1220.5310059</ele>
        <time>2012-10-18T11:47:25Z</time>
      </trkpt>
      <trkpt lat="44.37502" lon="6.16253">
        <ele>1217.6469727</ele>
        <time>2012-10-18T11:47:42Z</time>
      </trkpt>
      <trkpt lat="44.37494" lon="6.16267">
        <ele>1214.2824707</ele>
        <time>2012-10-18T11:48:02Z</time>
      </trkpt>
      <trkpt lat="44.37486" lon="6.16277">
        <ele>1210.9177246</ele>
        <time>2012-10-18T11:48:18Z</time>
      </trkpt>
      <trkpt lat="44.37468" lon="6.16284">
        <ele>1208.9951172</ele>
        <time>2012-10-18T11:48:40Z</time>
      </trkpt>
      <trkpt lat="44.3745" lon="6.16283">
        <ele>1205.6306152</ele>
        <time>2012-10-18T11:49:06Z</time>
      </trkpt>
      <trkpt lat="44.37456" lon="6.16293">
        <ele>1203.7080078</ele>
        <time>2012-10-18T11:49:24Z</time>
      </trkpt>
      <trkpt lat="44.37469" lon="6.16305">
        <ele>1201.3046875</ele>
        <time>2012-10-18T11:49:45Z</time>
      </trkpt>
      <trkpt lat="44.37474" lon="6.16315">
        <ele>1199.862793</ele>
        <time>2012-10-18T11:50:02Z</time>
      </trkpt>
      <trkpt lat="44.37474" lon="6.16323">
        <ele>1199.862793</ele>
        <time>2012-10-18T11:50:19Z</time>
      </trkpt>
      <trkpt lat="44.37482" lon="6.16337">
        <ele>1198.4206543</ele>
        <time>2012-10-18T11:50:36Z</time>
      </trkpt>
      <trkpt lat="44.37492" lon="6.16357">
        <ele>1196.0175781</ele>
        <time>2012-10-18T11:50:56Z</time>
      </trkpt>
      <trkpt lat="44.37495" lon="6.16388">
        <ele>1193.6140137</ele>
        <time>2012-10-18T11:51:20Z</time>
      </trkpt>
      <trkpt lat="44.37495" lon="6.16393">
        <ele>1193.1333008</ele>
        <time>2012-10-18T11:51:34Z</time>
      </trkpt>
      <trkpt lat="44.37495" lon="6.16394">
        <ele>1193.6140137</ele>
        <time>2012-10-18T11:51:53Z</time>
      </trkpt>
      <trkpt lat="44.37495" lon="6.16394">
        <ele>1193.6140137</ele>
        <time>2012-10-18T11:52:08Z</time>
      </trkpt>
    </trkseg>
  </trk>
</gpx>